<?xml version="1.0" encoding="UTF-8" standalone="no" ?>
<gpx xmlns="http://www.topografix.com/GPX/1/1" xmlns:xsi="http://www.w3.org/2001/XMLSchema-instance" xsi:schemaLocation="http://www.topografix.com/GPX/1/1 http://www.topografix.com/GPX/1/1/gpx.xsd" version="1.1" creator="VisuGPX - https://www.visugpx.com">
  <metadata>
    <name>2022-10-17 14:03</name>
    <desc><![CDATA[File with points/tracks from Locus Map/4.12.0]]></desc>
  </metadata>
  <trk>
    <name><![CDATA[2022-10-17 14:03]]></name>
    <extensions>
      <line xmlns="http://www.topografix.com/GPX/gpx_style/0/2">
        <color>0000FF</color>
        <opacity>0.59</opacity>
        <width>6.0</width>
      </line>
    </extensions>
    <trkseg>
      <trkpt lat="49.54499" lon="3.6364">
        <ele>74.73</ele>
        <time>2022-10-17T12:03:11.000Z</time>
      </trkpt>
      <trkpt lat="49.54499" lon="3.63642">
        <ele>74.73</ele>
        <time>2022-10-17T12:03:38.000Z</time>
      </trkpt>
      <trkpt lat="49.54493" lon="3.63657">
        <ele>75.43</ele>
        <time>2022-10-17T12:03:48.000Z</time>
      </trkpt>
      <trkpt lat="49.54489" lon="3.63672">
        <ele>74.73</ele>
        <time>2022-10-17T12:03:58.000Z</time>
      </trkpt>
      <trkpt lat="49.54484" lon="3.63689">
        <ele>74.53</ele>
        <time>2022-10-17T12:04:08.000Z</time>
      </trkpt>
      <trkpt lat="49.54477" lon="3.63699">
        <ele>74.73</ele>
        <time>2022-10-17T12:04:18.000Z</time>
      </trkpt>
      <trkpt lat="49.54475" lon="3.63714">
        <ele>74.73</ele>
        <time>2022-10-17T12:04:28.000Z</time>
      </trkpt>
      <trkpt lat="49.54477" lon="3.63736">
        <ele>74.73</ele>
        <time>2022-10-17T12:04:38.000Z</time>
      </trkpt>
      <trkpt lat="49.5448" lon="3.63747">
        <ele>74.73</ele>
        <time>2022-10-17T12:04:48.000Z</time>
      </trkpt>
      <trkpt lat="49.54479" lon="3.63765">
        <ele>74.73</ele>
        <time>2022-10-17T12:04:58.000Z</time>
      </trkpt>
      <trkpt lat="49.54474" lon="3.63788">
        <ele>74.73</ele>
        <time>2022-10-17T12:05:08.000Z</time>
      </trkpt>
      <trkpt lat="49.54471" lon="3.63802">
        <ele>74.73</ele>
        <time>2022-10-17T12:05:18.000Z</time>
      </trkpt>
      <trkpt lat="49.54471" lon="3.63821">
        <ele>74.73</ele>
        <time>2022-10-17T12:05:28.000Z</time>
      </trkpt>
      <trkpt lat="49.54471" lon="3.63836">
        <ele>74.73</ele>
        <time>2022-10-17T12:05:38.000Z</time>
      </trkpt>
      <trkpt lat="49.54467" lon="3.63851">
        <ele>74.73</ele>
        <time>2022-10-17T12:05:48.000Z</time>
      </trkpt>
      <trkpt lat="49.54467" lon="3.63861">
        <ele>74.73</ele>
        <time>2022-10-17T12:05:58.000Z</time>
      </trkpt>
      <trkpt lat="49.54463" lon="3.63874">
        <ele>74.73</ele>
        <time>2022-10-17T12:06:08.000Z</time>
      </trkpt>
      <trkpt lat="49.54455" lon="3.6389">
        <ele>74.73</ele>
        <time>2022-10-17T12:06:18.000Z</time>
      </trkpt>
      <trkpt lat="49.5445" lon="3.63906">
        <ele>74.73</ele>
        <time>2022-10-17T12:06:28.000Z</time>
      </trkpt>
      <trkpt lat="49.54444" lon="3.63931">
        <ele>88.37</ele>
        <time>2022-10-17T12:06:38.000Z</time>
      </trkpt>
      <trkpt lat="49.54441" lon="3.63949">
        <ele>87.87</ele>
        <time>2022-10-17T12:06:48.000Z</time>
      </trkpt>
      <trkpt lat="49.54441" lon="3.63968">
        <ele>87.33</ele>
        <time>2022-10-17T12:06:58.000Z</time>
      </trkpt>
      <trkpt lat="49.54443" lon="3.63986">
        <ele>86.65</ele>
        <time>2022-10-17T12:07:08.000Z</time>
      </trkpt>
      <trkpt lat="49.54443" lon="3.64004">
        <ele>86.08</ele>
        <time>2022-10-17T12:07:18.000Z</time>
      </trkpt>
      <trkpt lat="49.54442" lon="3.6402">
        <ele>85.83</ele>
        <time>2022-10-17T12:07:28.000Z</time>
      </trkpt>
      <trkpt lat="49.54442" lon="3.64037">
        <ele>85.42</ele>
        <time>2022-10-17T12:07:38.000Z</time>
      </trkpt>
      <trkpt lat="49.54443" lon="3.64052">
        <ele>85.02</ele>
        <time>2022-10-17T12:07:48.000Z</time>
      </trkpt>
      <trkpt lat="49.54445" lon="3.6407">
        <ele>84.99</ele>
        <time>2022-10-17T12:07:58.000Z</time>
      </trkpt>
      <trkpt lat="49.54442" lon="3.64089">
        <ele>85.1</ele>
        <time>2022-10-17T12:08:08.000Z</time>
      </trkpt>
      <trkpt lat="49.54433" lon="3.64103">
        <ele>84.73</ele>
        <time>2022-10-17T12:08:18.000Z</time>
      </trkpt>
      <trkpt lat="49.54422" lon="3.64109">
        <ele>83.96</ele>
        <time>2022-10-17T12:08:28.000Z</time>
      </trkpt>
      <trkpt lat="49.5441" lon="3.64115">
        <ele>83.31</ele>
        <time>2022-10-17T12:08:38.000Z</time>
      </trkpt>
      <trkpt lat="49.54401" lon="3.64119">
        <ele>82.56</ele>
        <time>2022-10-17T12:08:48.000Z</time>
      </trkpt>
      <trkpt lat="49.54394" lon="3.64121">
        <ele>82.23</ele>
        <time>2022-10-17T12:08:58.000Z</time>
      </trkpt>
      <trkpt lat="49.54385" lon="3.64126">
        <ele>82.23</ele>
        <time>2022-10-17T12:09:08.000Z</time>
      </trkpt>
      <trkpt lat="49.54377" lon="3.64135">
        <ele>82.41</ele>
        <time>2022-10-17T12:09:18.000Z</time>
      </trkpt>
      <trkpt lat="49.54368" lon="3.64155">
        <ele>82.12</ele>
        <time>2022-10-17T12:09:28.000Z</time>
      </trkpt>
      <trkpt lat="49.54365" lon="3.64173">
        <ele>81.75</ele>
        <time>2022-10-17T12:09:38.000Z</time>
      </trkpt>
      <trkpt lat="49.54365" lon="3.64194">
        <ele>81.21</ele>
        <time>2022-10-17T12:09:48.000Z</time>
      </trkpt>
      <trkpt lat="49.54366" lon="3.64214">
        <ele>68.63</ele>
        <time>2022-10-17T12:09:58.000Z</time>
      </trkpt>
      <trkpt lat="49.54368" lon="3.64232">
        <ele>68.62</ele>
        <time>2022-10-17T12:10:08.000Z</time>
      </trkpt>
      <trkpt lat="49.54367" lon="3.64249">
        <ele>68.62</ele>
        <time>2022-10-17T12:10:18.000Z</time>
      </trkpt>
      <trkpt lat="49.54368" lon="3.64266">
        <ele>68.62</ele>
        <time>2022-10-17T12:10:28.000Z</time>
      </trkpt>
      <trkpt lat="49.54366" lon="3.64282">
        <ele>68.62</ele>
        <time>2022-10-17T12:10:38.000Z</time>
      </trkpt>
      <trkpt lat="49.54363" lon="3.64302">
        <ele>68.62</ele>
        <time>2022-10-17T12:10:48.000Z</time>
      </trkpt>
      <trkpt lat="49.54358" lon="3.64314">
        <ele>68.62</ele>
        <time>2022-10-17T12:10:58.000Z</time>
      </trkpt>
      <trkpt lat="49.5435" lon="3.64328">
        <ele>68.62</ele>
        <time>2022-10-17T12:11:08.000Z</time>
      </trkpt>
      <trkpt lat="49.54343" lon="3.64341">
        <ele>68.62</ele>
        <time>2022-10-17T12:11:18.000Z</time>
      </trkpt>
      <trkpt lat="49.54335" lon="3.64358">
        <ele>68.62</ele>
        <time>2022-10-17T12:11:28.000Z</time>
      </trkpt>
      <trkpt lat="49.54329" lon="3.64373">
        <ele>68.62</ele>
        <time>2022-10-17T12:11:38.000Z</time>
      </trkpt>
      <trkpt lat="49.54325" lon="3.6439">
        <ele>68.62</ele>
        <time>2022-10-17T12:11:48.000Z</time>
      </trkpt>
      <trkpt lat="49.54322" lon="3.64404">
        <ele>68.62</ele>
        <time>2022-10-17T12:11:58.000Z</time>
      </trkpt>
      <trkpt lat="49.54317" lon="3.64416">
        <ele>68.62</ele>
        <time>2022-10-17T12:12:08.000Z</time>
      </trkpt>
      <trkpt lat="49.5431" lon="3.64434">
        <ele>68.62</ele>
        <time>2022-10-17T12:12:18.000Z</time>
      </trkpt>
      <trkpt lat="49.54306" lon="3.6445">
        <ele>68.62</ele>
        <time>2022-10-17T12:12:28.000Z</time>
      </trkpt>
      <trkpt lat="49.543" lon="3.64465">
        <ele>68.62</ele>
        <time>2022-10-17T12:12:38.000Z</time>
      </trkpt>
      <trkpt lat="49.54296" lon="3.64477">
        <ele>68.62</ele>
        <time>2022-10-17T12:12:48.000Z</time>
      </trkpt>
      <trkpt lat="49.54295" lon="3.64477">
        <ele>68.62</ele>
        <time>2022-10-17T12:12:58.000Z</time>
      </trkpt>
      <trkpt lat="49.54292" lon="3.6449">
        <ele>68.62</ele>
        <time>2022-10-17T12:13:08.000Z</time>
      </trkpt>
      <trkpt lat="49.54288" lon="3.6451">
        <ele>68.62</ele>
        <time>2022-10-17T12:13:18.000Z</time>
      </trkpt>
      <trkpt lat="49.5428" lon="3.64526">
        <ele>68.62</ele>
        <time>2022-10-17T12:13:28.000Z</time>
      </trkpt>
      <trkpt lat="49.54273" lon="3.64547">
        <ele>68.62</ele>
        <time>2022-10-17T12:13:38.000Z</time>
      </trkpt>
      <trkpt lat="49.54269" lon="3.64563">
        <ele>68.62</ele>
        <time>2022-10-17T12:13:48.000Z</time>
      </trkpt>
      <trkpt lat="49.54267" lon="3.64583">
        <ele>68.62</ele>
        <time>2022-10-17T12:13:58.000Z</time>
      </trkpt>
      <trkpt lat="49.54263" lon="3.64595">
        <ele>68.62</ele>
        <time>2022-10-17T12:14:08.000Z</time>
      </trkpt>
      <trkpt lat="49.54261" lon="3.6461">
        <ele>68.62</ele>
        <time>2022-10-17T12:14:18.000Z</time>
      </trkpt>
      <trkpt lat="49.54256" lon="3.64624">
        <ele>68.62</ele>
        <time>2022-10-17T12:14:28.000Z</time>
      </trkpt>
      <trkpt lat="49.5425" lon="3.64641">
        <ele>68.62</ele>
        <time>2022-10-17T12:14:38.000Z</time>
      </trkpt>
      <trkpt lat="49.54243" lon="3.64654">
        <ele>68.62</ele>
        <time>2022-10-17T12:14:48.000Z</time>
      </trkpt>
      <trkpt lat="49.54236" lon="3.64668">
        <ele>68.62</ele>
        <time>2022-10-17T12:14:58.000Z</time>
      </trkpt>
      <trkpt lat="49.54227" lon="3.64681">
        <ele>68.62</ele>
        <time>2022-10-17T12:15:08.000Z</time>
      </trkpt>
      <trkpt lat="49.5422" lon="3.64694">
        <ele>68.62</ele>
        <time>2022-10-17T12:15:18.000Z</time>
      </trkpt>
      <trkpt lat="49.54212" lon="3.64706">
        <ele>68.62</ele>
        <time>2022-10-17T12:15:27.999Z</time>
      </trkpt>
      <trkpt lat="49.54203" lon="3.6472">
        <ele>68.62</ele>
        <time>2022-10-17T12:15:37.999Z</time>
      </trkpt>
      <trkpt lat="49.54195" lon="3.64735">
        <ele>68.62</ele>
        <time>2022-10-17T12:15:47.999Z</time>
      </trkpt>
      <trkpt lat="49.54188" lon="3.64749">
        <ele>68.62</ele>
        <time>2022-10-17T12:15:57.999Z</time>
      </trkpt>
      <trkpt lat="49.54187" lon="3.64764">
        <ele>68.62</ele>
        <time>2022-10-17T12:16:07.999Z</time>
      </trkpt>
      <trkpt lat="49.54187" lon="3.64778">
        <ele>68.62</ele>
        <time>2022-10-17T12:16:17.999Z</time>
      </trkpt>
      <trkpt lat="49.54188" lon="3.64794">
        <ele>81.39</ele>
        <time>2022-10-17T12:16:27.999Z</time>
      </trkpt>
      <trkpt lat="49.54189" lon="3.64809">
        <ele>82.09</ele>
        <time>2022-10-17T12:16:37.999Z</time>
      </trkpt>
      <trkpt lat="49.54193" lon="3.64824">
        <ele>82.98</ele>
        <time>2022-10-17T12:16:47.999Z</time>
      </trkpt>
      <trkpt lat="49.54201" lon="3.64838">
        <ele>83.69</ele>
        <time>2022-10-17T12:16:57.999Z</time>
      </trkpt>
      <trkpt lat="49.54209" lon="3.64852">
        <ele>83.91</ele>
        <time>2022-10-17T12:17:07.999Z</time>
      </trkpt>
      <trkpt lat="49.54213" lon="3.64863">
        <ele>176.12</ele>
        <time>2022-10-17T12:17:17.999Z</time>
      </trkpt>
      <trkpt lat="49.5422" lon="3.64874">
        <ele>176.12</ele>
        <time>2022-10-17T12:17:27.999Z</time>
      </trkpt>
      <trkpt lat="49.54229" lon="3.64887">
        <ele>176.12</ele>
        <time>2022-10-17T12:17:37.999Z</time>
      </trkpt>
      <trkpt lat="49.5424" lon="3.64899">
        <ele>159.71</ele>
        <time>2022-10-17T12:17:48.999Z</time>
      </trkpt>
      <trkpt lat="49.54248" lon="3.64911">
        <ele>164.72</ele>
        <time>2022-10-17T12:17:58.999Z</time>
      </trkpt>
      <trkpt lat="49.54255" lon="3.64923">
        <ele>164.72</ele>
        <time>2022-10-17T12:18:08.999Z</time>
      </trkpt>
      <trkpt lat="49.54262" lon="3.64935">
        <ele>164.72</ele>
        <time>2022-10-17T12:18:18.999Z</time>
      </trkpt>
      <trkpt lat="49.54268" lon="3.64953">
        <ele>164.72</ele>
        <time>2022-10-17T12:18:28.999Z</time>
      </trkpt>
      <trkpt lat="49.54266" lon="3.64971">
        <ele>164.72</ele>
        <time>2022-10-17T12:18:38.999Z</time>
      </trkpt>
      <trkpt lat="49.54254" lon="3.64982">
        <ele>164.72</ele>
        <time>2022-10-17T12:18:48.999Z</time>
      </trkpt>
      <trkpt lat="49.54247" lon="3.64996">
        <ele>164.72</ele>
        <time>2022-10-17T12:18:58.999Z</time>
      </trkpt>
      <trkpt lat="49.5424" lon="3.6501">
        <ele>164.72</ele>
        <time>2022-10-17T12:19:08.999Z</time>
      </trkpt>
      <trkpt lat="49.54232" lon="3.6502">
        <ele>164.72</ele>
        <time>2022-10-17T12:19:18.999Z</time>
      </trkpt>
      <trkpt lat="49.54224" lon="3.65036">
        <ele>164.72</ele>
        <time>2022-10-17T12:19:28.999Z</time>
      </trkpt>
      <trkpt lat="49.54217" lon="3.65049">
        <ele>164.72</ele>
        <time>2022-10-17T12:19:38.999Z</time>
      </trkpt>
      <trkpt lat="49.54209" lon="3.65063">
        <ele>101.07</ele>
        <time>2022-10-17T12:19:48.999Z</time>
      </trkpt>
      <trkpt lat="49.54202" lon="3.65078">
        <ele>79.72</ele>
        <time>2022-10-17T12:19:58.999Z</time>
      </trkpt>
      <trkpt lat="49.54197" lon="3.65092">
        <ele>79.34</ele>
        <time>2022-10-17T12:20:08.999Z</time>
      </trkpt>
      <trkpt lat="49.54193" lon="3.65106">
        <ele>79.22</ele>
        <time>2022-10-17T12:20:18.999Z</time>
      </trkpt>
      <trkpt lat="49.54188" lon="3.65121">
        <ele>79.07</ele>
        <time>2022-10-17T12:20:28.999Z</time>
      </trkpt>
      <trkpt lat="49.54183" lon="3.65136">
        <ele>79.05</ele>
        <time>2022-10-17T12:20:38.999Z</time>
      </trkpt>
      <trkpt lat="49.54178" lon="3.6515">
        <ele>78.98</ele>
        <time>2022-10-17T12:20:48.999Z</time>
      </trkpt>
      <trkpt lat="49.54171" lon="3.65166">
        <ele>78.95</ele>
        <time>2022-10-17T12:20:58.999Z</time>
      </trkpt>
      <trkpt lat="49.54165" lon="3.65178">
        <ele>78.83</ele>
        <time>2022-10-17T12:21:08.999Z</time>
      </trkpt>
      <trkpt lat="49.54161" lon="3.65195">
        <ele>78.75</ele>
        <time>2022-10-17T12:21:18.999Z</time>
      </trkpt>
      <trkpt lat="49.54156" lon="3.65209">
        <ele>78.46</ele>
        <time>2022-10-17T12:21:28.999Z</time>
      </trkpt>
      <trkpt lat="49.54151" lon="3.65225">
        <ele>78.08</ele>
        <time>2022-10-17T12:21:38.999Z</time>
      </trkpt>
      <trkpt lat="49.54145" lon="3.65241">
        <ele>77.92</ele>
        <time>2022-10-17T12:21:48.999Z</time>
      </trkpt>
      <trkpt lat="49.54138" lon="3.65258">
        <ele>77.63</ele>
        <time>2022-10-17T12:21:58.999Z</time>
      </trkpt>
      <trkpt lat="49.54134" lon="3.65271">
        <ele>77.57</ele>
        <time>2022-10-17T12:22:08.999Z</time>
      </trkpt>
      <trkpt lat="49.54127" lon="3.65287">
        <ele>77.11</ele>
        <time>2022-10-17T12:22:18.999Z</time>
      </trkpt>
      <trkpt lat="49.54122" lon="3.65301">
        <ele>75.99</ele>
        <time>2022-10-17T12:22:28.999Z</time>
      </trkpt>
      <trkpt lat="49.54116" lon="3.65316">
        <ele>74.96</ele>
        <time>2022-10-17T12:22:38.999Z</time>
      </trkpt>
      <trkpt lat="49.54109" lon="3.65332">
        <ele>74.7</ele>
        <time>2022-10-17T12:22:48.999Z</time>
      </trkpt>
      <trkpt lat="49.54104" lon="3.65345">
        <ele>74.9</ele>
        <time>2022-10-17T12:22:58.999Z</time>
      </trkpt>
      <trkpt lat="49.54098" lon="3.65359">
        <ele>75.13</ele>
        <time>2022-10-17T12:23:08.999Z</time>
      </trkpt>
      <trkpt lat="49.54092" lon="3.65377">
        <ele>74.51</ele>
        <time>2022-10-17T12:23:18.999Z</time>
      </trkpt>
      <trkpt lat="49.54084" lon="3.65388">
        <ele>73.77</ele>
        <time>2022-10-17T12:23:28.999Z</time>
      </trkpt>
      <trkpt lat="49.54078" lon="3.65403">
        <ele>73.67</ele>
        <time>2022-10-17T12:23:38.999Z</time>
      </trkpt>
      <trkpt lat="49.54073" lon="3.65415">
        <ele>73.94</ele>
        <time>2022-10-17T12:23:48.999Z</time>
      </trkpt>
      <trkpt lat="49.54068" lon="3.65429">
        <ele>73.88</ele>
        <time>2022-10-17T12:23:58.999Z</time>
      </trkpt>
      <trkpt lat="49.54059" lon="3.65442">
        <ele>74.02</ele>
        <time>2022-10-17T12:24:08.999Z</time>
      </trkpt>
      <trkpt lat="49.5405" lon="3.65453">
        <ele>74.47</ele>
        <time>2022-10-17T12:24:18.999Z</time>
      </trkpt>
      <trkpt lat="49.5404" lon="3.65461">
        <ele>75.5</ele>
        <time>2022-10-17T12:24:28.999Z</time>
      </trkpt>
      <trkpt lat="49.54028" lon="3.6547">
        <ele>76.86</ele>
        <time>2022-10-17T12:24:38.999Z</time>
      </trkpt>
      <trkpt lat="49.54019" lon="3.65474">
        <ele>78.71</ele>
        <time>2022-10-17T12:24:48.999Z</time>
      </trkpt>
      <trkpt lat="49.54015" lon="3.65467">
        <ele>80.71</ele>
        <time>2022-10-17T12:24:58.999Z</time>
      </trkpt>
      <trkpt lat="49.54008" lon="3.65476">
        <ele>81.92</ele>
        <time>2022-10-17T12:25:08.999Z</time>
      </trkpt>
      <trkpt lat="49.54" lon="3.65484">
        <ele>82.61</ele>
        <time>2022-10-17T12:25:18.999Z</time>
      </trkpt>
      <trkpt lat="49.54" lon="3.65485">
        <ele>82.7</ele>
        <time>2022-10-17T12:25:28.999Z</time>
      </trkpt>
      <trkpt lat="49.53991" lon="3.65496">
        <ele>82.99</ele>
        <time>2022-10-17T12:25:38.999Z</time>
      </trkpt>
      <trkpt lat="49.53977" lon="3.65506">
        <ele>83.08</ele>
        <time>2022-10-17T12:25:48.999Z</time>
      </trkpt>
      <trkpt lat="49.53967" lon="3.65516">
        <ele>83.03</ele>
        <time>2022-10-17T12:25:58.999Z</time>
      </trkpt>
      <trkpt lat="49.53959" lon="3.65519">
        <ele>83.04</ele>
        <time>2022-10-17T12:26:08.999Z</time>
      </trkpt>
      <trkpt lat="49.53949" lon="3.65525">
        <ele>82.61</ele>
        <time>2022-10-17T12:26:18.999Z</time>
      </trkpt>
      <trkpt lat="49.53941" lon="3.65525">
        <ele>82.2</ele>
        <time>2022-10-17T12:26:28.999Z</time>
      </trkpt>
      <trkpt lat="49.53937" lon="3.65532">
        <ele>81.46</ele>
        <time>2022-10-17T12:26:38.999Z</time>
      </trkpt>
      <trkpt lat="49.53929" lon="3.65548">
        <ele>81.36</ele>
        <time>2022-10-17T12:26:48.999Z</time>
      </trkpt>
      <trkpt lat="49.53925" lon="3.65564">
        <ele>81.55</ele>
        <time>2022-10-17T12:26:58.999Z</time>
      </trkpt>
      <trkpt lat="49.53925" lon="3.65582">
        <ele>81.46</ele>
        <time>2022-10-17T12:27:08.999Z</time>
      </trkpt>
      <trkpt lat="49.53924" lon="3.65599">
        <ele>81.33</ele>
        <time>2022-10-17T12:27:18.999Z</time>
      </trkpt>
      <trkpt lat="49.53919" lon="3.65617">
        <ele>81.1</ele>
        <time>2022-10-17T12:27:28.999Z</time>
      </trkpt>
      <trkpt lat="49.53911" lon="3.65633">
        <ele>79.97</ele>
        <time>2022-10-17T12:27:38.999Z</time>
      </trkpt>
      <trkpt lat="49.53907" lon="3.65643">
        <ele>79.53</ele>
        <time>2022-10-17T12:27:48.999Z</time>
      </trkpt>
      <trkpt lat="49.53904" lon="3.65657">
        <ele>79.1</ele>
        <time>2022-10-17T12:27:58.999Z</time>
      </trkpt>
      <trkpt lat="49.53899" lon="3.65669">
        <ele>78.87</ele>
        <time>2022-10-17T12:28:08.999Z</time>
      </trkpt>
      <trkpt lat="49.53897" lon="3.65683">
        <ele>78.77</ele>
        <time>2022-10-17T12:28:18.999Z</time>
      </trkpt>
      <trkpt lat="49.53895" lon="3.65698">
        <ele>78.92</ele>
        <time>2022-10-17T12:28:28.999Z</time>
      </trkpt>
      <trkpt lat="49.53889" lon="3.65717">
        <ele>79.74</ele>
        <time>2022-10-17T12:28:38.999Z</time>
      </trkpt>
      <trkpt lat="49.5388" lon="3.65733">
        <ele>80.64</ele>
        <time>2022-10-17T12:28:48.999Z</time>
      </trkpt>
      <trkpt lat="49.53876" lon="3.65746">
        <ele>81.41</ele>
        <time>2022-10-17T12:28:58.999Z</time>
      </trkpt>
      <trkpt lat="49.53869" lon="3.65758">
        <ele>82.01</ele>
        <time>2022-10-17T12:29:08.999Z</time>
      </trkpt>
      <trkpt lat="49.53861" lon="3.6577">
        <ele>82.41</ele>
        <time>2022-10-17T12:29:18.999Z</time>
      </trkpt>
      <trkpt lat="49.53854" lon="3.65779">
        <ele>82.64</ele>
        <time>2022-10-17T12:29:28.999Z</time>
      </trkpt>
      <trkpt lat="49.53849" lon="3.65795">
        <ele>82.53</ele>
        <time>2022-10-17T12:29:38.999Z</time>
      </trkpt>
      <trkpt lat="49.53845" lon="3.65808">
        <ele>82.58</ele>
        <time>2022-10-17T12:29:48.999Z</time>
      </trkpt>
      <trkpt lat="49.53841" lon="3.65827">
        <ele>83.39</ele>
        <time>2022-10-17T12:29:58.999Z</time>
      </trkpt>
      <trkpt lat="49.53837" lon="3.65849">
        <ele>84.37</ele>
        <time>2022-10-17T12:30:08.999Z</time>
      </trkpt>
      <trkpt lat="49.5383" lon="3.65867">
        <ele>85.43</ele>
        <time>2022-10-17T12:30:18.999Z</time>
      </trkpt>
      <trkpt lat="49.53825" lon="3.65875">
        <ele>86.02</ele>
        <time>2022-10-17T12:30:28.999Z</time>
      </trkpt>
      <trkpt lat="49.5382" lon="3.65888">
        <ele>86.43</ele>
        <time>2022-10-17T12:30:38.999Z</time>
      </trkpt>
      <trkpt lat="49.53816" lon="3.65903">
        <ele>87.1</ele>
        <time>2022-10-17T12:30:48.999Z</time>
      </trkpt>
      <trkpt lat="49.53811" lon="3.65913">
        <ele>88.14</ele>
        <time>2022-10-17T12:30:58.999Z</time>
      </trkpt>
      <trkpt lat="49.53806" lon="3.65927">
        <ele>88.44</ele>
        <time>2022-10-17T12:31:08.999Z</time>
      </trkpt>
      <trkpt lat="49.53797" lon="3.65941">
        <ele>88.02</ele>
        <time>2022-10-17T12:31:18.999Z</time>
      </trkpt>
      <trkpt lat="49.53792" lon="3.65957">
        <ele>87.63</ele>
        <time>2022-10-17T12:31:28.999Z</time>
      </trkpt>
      <trkpt lat="49.53787" lon="3.65974">
        <ele>88.1</ele>
        <time>2022-10-17T12:31:38.999Z</time>
      </trkpt>
      <trkpt lat="49.53781" lon="3.6599">
        <ele>88.92</ele>
        <time>2022-10-17T12:31:48.999Z</time>
      </trkpt>
      <trkpt lat="49.53776" lon="3.66003">
        <ele>89.62</ele>
        <time>2022-10-17T12:31:58.999Z</time>
      </trkpt>
      <trkpt lat="49.53771" lon="3.66013">
        <ele>90.23</ele>
        <time>2022-10-17T12:32:08.999Z</time>
      </trkpt>
      <trkpt lat="49.53761" lon="3.66024">
        <ele>90.65</ele>
        <time>2022-10-17T12:32:18.999Z</time>
      </trkpt>
      <trkpt lat="49.53749" lon="3.66022">
        <ele>91.13</ele>
        <time>2022-10-17T12:32:28.999Z</time>
      </trkpt>
      <trkpt lat="49.5374" lon="3.66017">
        <ele>91.15</ele>
        <time>2022-10-17T12:32:38.999Z</time>
      </trkpt>
      <trkpt lat="49.5373" lon="3.66016">
        <ele>91.06</ele>
        <time>2022-10-17T12:32:48.999Z</time>
      </trkpt>
      <trkpt lat="49.5372" lon="3.66011">
        <ele>91.28</ele>
        <time>2022-10-17T12:32:58.999Z</time>
      </trkpt>
      <trkpt lat="49.5371" lon="3.66007">
        <ele>90.72</ele>
        <time>2022-10-17T12:33:08.999Z</time>
      </trkpt>
      <trkpt lat="49.53696" lon="3.65997">
        <ele>90.3</ele>
        <time>2022-10-17T12:33:18.999Z</time>
      </trkpt>
      <trkpt lat="49.53684" lon="3.65988">
        <ele>90.25</ele>
        <time>2022-10-17T12:33:28.999Z</time>
      </trkpt>
      <trkpt lat="49.53674" lon="3.65979">
        <ele>89.64</ele>
        <time>2022-10-17T12:33:38.999Z</time>
      </trkpt>
      <trkpt lat="49.53666" lon="3.65972">
        <ele>88.48</ele>
        <time>2022-10-17T12:33:48.999Z</time>
      </trkpt>
      <trkpt lat="49.53657" lon="3.65968">
        <ele>87.72</ele>
        <time>2022-10-17T12:33:58.999Z</time>
      </trkpt>
      <trkpt lat="49.53646" lon="3.65964">
        <ele>87.1</ele>
        <time>2022-10-17T12:34:08.999Z</time>
      </trkpt>
      <trkpt lat="49.53637" lon="3.65956">
        <ele>86.5</ele>
        <time>2022-10-17T12:34:18.999Z</time>
      </trkpt>
      <trkpt lat="49.53627" lon="3.6595">
        <ele>86.03</ele>
        <time>2022-10-17T12:34:28.999Z</time>
      </trkpt>
      <trkpt lat="49.53617" lon="3.65943">
        <ele>85.95</ele>
        <time>2022-10-17T12:34:38.999Z</time>
      </trkpt>
      <trkpt lat="49.53606" lon="3.65937">
        <ele>86.02</ele>
        <time>2022-10-17T12:34:48.999Z</time>
      </trkpt>
      <trkpt lat="49.53595" lon="3.65937">
        <ele>86.04</ele>
        <time>2022-10-17T12:34:58.999Z</time>
      </trkpt>
      <trkpt lat="49.53583" lon="3.65933">
        <ele>86.53</ele>
        <time>2022-10-17T12:35:08.999Z</time>
      </trkpt>
      <trkpt lat="49.53573" lon="3.65931">
        <ele>87.24</ele>
        <time>2022-10-17T12:35:18.999Z</time>
      </trkpt>
      <trkpt lat="49.53562" lon="3.65932">
        <ele>87.72</ele>
        <time>2022-10-17T12:35:28.999Z</time>
      </trkpt>
      <trkpt lat="49.53552" lon="3.65934">
        <ele>87.67</ele>
        <time>2022-10-17T12:35:38.999Z</time>
      </trkpt>
      <trkpt lat="49.5354" lon="3.65939">
        <ele>80.31</ele>
        <time>2022-10-17T12:35:48.999Z</time>
      </trkpt>
      <trkpt lat="49.53529" lon="3.65943">
        <ele>80.31</ele>
        <time>2022-10-17T12:35:58.999Z</time>
      </trkpt>
      <trkpt lat="49.53516" lon="3.65945">
        <ele>80.31</ele>
        <time>2022-10-17T12:36:08.999Z</time>
      </trkpt>
      <trkpt lat="49.53508" lon="3.65942">
        <ele>80.31</ele>
        <time>2022-10-17T12:36:18.999Z</time>
      </trkpt>
      <trkpt lat="49.53497" lon="3.65939">
        <ele>80.31</ele>
        <time>2022-10-17T12:36:28.999Z</time>
      </trkpt>
      <trkpt lat="49.53485" lon="3.65941">
        <ele>80.31</ele>
        <time>2022-10-17T12:36:38.999Z</time>
      </trkpt>
      <trkpt lat="49.53475" lon="3.65938">
        <ele>80.31</ele>
        <time>2022-10-17T12:36:48.999Z</time>
      </trkpt>
      <trkpt lat="49.53465" lon="3.65936">
        <ele>80.31</ele>
        <time>2022-10-17T12:36:58.999Z</time>
      </trkpt>
      <trkpt lat="49.53453" lon="3.65935">
        <ele>80.31</ele>
        <time>2022-10-17T12:37:08.999Z</time>
      </trkpt>
      <trkpt lat="49.53442" lon="3.65937">
        <ele>80.31</ele>
        <time>2022-10-17T12:37:18.999Z</time>
      </trkpt>
      <trkpt lat="49.5343" lon="3.65938">
        <ele>80.31</ele>
        <time>2022-10-17T12:37:28.999Z</time>
      </trkpt>
      <trkpt lat="49.53416" lon="3.65933">
        <ele>80.31</ele>
        <time>2022-10-17T12:37:38.999Z</time>
      </trkpt>
      <trkpt lat="49.53404" lon="3.6593">
        <ele>80.31</ele>
        <time>2022-10-17T12:37:48.999Z</time>
      </trkpt>
      <trkpt lat="49.53394" lon="3.6593">
        <ele>80.31</ele>
        <time>2022-10-17T12:37:58.999Z</time>
      </trkpt>
      <trkpt lat="49.53382" lon="3.65934">
        <ele>80.31</ele>
        <time>2022-10-17T12:38:08.999Z</time>
      </trkpt>
      <trkpt lat="49.53369" lon="3.65937">
        <ele>80.31</ele>
        <time>2022-10-17T12:38:18.999Z</time>
      </trkpt>
      <trkpt lat="49.53358" lon="3.65938">
        <ele>80.31</ele>
        <time>2022-10-17T12:38:28.999Z</time>
      </trkpt>
      <trkpt lat="49.53349" lon="3.65936">
        <ele>80.31</ele>
        <time>2022-10-17T12:38:38.999Z</time>
      </trkpt>
      <trkpt lat="49.53337" lon="3.65936">
        <ele>80.31</ele>
        <time>2022-10-17T12:38:48.999Z</time>
      </trkpt>
      <trkpt lat="49.53324" lon="3.65935">
        <ele>80.31</ele>
        <time>2022-10-17T12:38:58.999Z</time>
      </trkpt>
      <trkpt lat="49.53312" lon="3.65934">
        <ele>80.31</ele>
        <time>2022-10-17T12:39:08.999Z</time>
      </trkpt>
      <trkpt lat="49.53302" lon="3.65934">
        <ele>80.31</ele>
        <time>2022-10-17T12:39:18.999Z</time>
      </trkpt>
      <trkpt lat="49.53292" lon="3.65933">
        <ele>80.31</ele>
        <time>2022-10-17T12:39:28.999Z</time>
      </trkpt>
      <trkpt lat="49.53281" lon="3.65936">
        <ele>80.31</ele>
        <time>2022-10-17T12:39:38.999Z</time>
      </trkpt>
      <trkpt lat="49.5327" lon="3.6594">
        <ele>80.31</ele>
        <time>2022-10-17T12:39:48.999Z</time>
      </trkpt>
      <trkpt lat="49.53259" lon="3.65942">
        <ele>80.31</ele>
        <time>2022-10-17T12:39:58.999Z</time>
      </trkpt>
      <trkpt lat="49.53255" lon="3.65942">
        <ele>80.31</ele>
        <time>2022-10-17T12:40:08.999Z</time>
      </trkpt>
      <trkpt lat="49.53255" lon="3.6594">
        <ele>80.31</ele>
        <time>2022-10-17T12:40:19.999Z</time>
      </trkpt>
      <trkpt lat="49.53251" lon="3.65939">
        <ele>80.31</ele>
        <time>2022-10-17T12:40:29.999Z</time>
      </trkpt>
      <trkpt lat="49.53252" lon="3.65933">
        <ele>80.31</ele>
        <time>2022-10-17T12:40:39.999Z</time>
      </trkpt>
      <trkpt lat="49.53251" lon="3.65934">
        <ele>80.31</ele>
        <time>2022-10-17T12:41:00.999Z</time>
      </trkpt>
      <trkpt lat="49.53249" lon="3.65938">
        <ele>80.31</ele>
        <time>2022-10-17T12:41:10.999Z</time>
      </trkpt>
      <trkpt lat="49.53257" lon="3.65941">
        <ele>80.31</ele>
        <time>2022-10-17T12:41:20.999Z</time>
      </trkpt>
      <trkpt lat="49.53256" lon="3.6594">
        <ele>80.31</ele>
        <time>2022-10-17T12:41:32.999Z</time>
      </trkpt>
      <trkpt lat="49.53253" lon="3.65936">
        <ele>80.31</ele>
        <time>2022-10-17T12:41:42.999Z</time>
      </trkpt>
      <trkpt lat="49.53252" lon="3.65933">
        <ele>80.31</ele>
        <time>2022-10-17T12:41:52.999Z</time>
      </trkpt>
      <trkpt lat="49.53251" lon="3.65933">
        <ele>80.31</ele>
        <time>2022-10-17T12:42:02.999Z</time>
      </trkpt>
      <trkpt lat="49.53249" lon="3.65935">
        <ele>80.31</ele>
        <time>2022-10-17T12:42:37.999Z</time>
      </trkpt>
      <trkpt lat="49.53247" lon="3.65937">
        <ele>80.31</ele>
        <time>2022-10-17T12:42:47.999Z</time>
      </trkpt>
      <trkpt lat="49.53246" lon="3.65936">
        <ele>80.31</ele>
        <time>2022-10-17T12:42:57.999Z</time>
      </trkpt>
      <trkpt lat="49.53246" lon="3.65935">
        <ele>80.31</ele>
        <time>2022-10-17T12:43:48.999Z</time>
      </trkpt>
      <trkpt lat="49.53247" lon="3.65933">
        <ele>80.31</ele>
        <time>2022-10-17T12:43:59.999Z</time>
      </trkpt>
      <trkpt lat="49.53246" lon="3.65931">
        <ele>80.31</ele>
        <time>2022-10-17T12:44:15.999Z</time>
      </trkpt>
      <trkpt lat="49.5324" lon="3.65932">
        <ele>80.31</ele>
        <time>2022-10-17T12:44:25.999Z</time>
      </trkpt>
      <trkpt lat="49.53235" lon="3.65935">
        <ele>80.31</ele>
        <time>2022-10-17T12:44:35.999Z</time>
      </trkpt>
      <trkpt lat="49.53226" lon="3.65937">
        <ele>80.31</ele>
        <time>2022-10-17T12:44:45.999Z</time>
      </trkpt>
      <trkpt lat="49.53215" lon="3.65944">
        <ele>80.31</ele>
        <time>2022-10-17T12:44:55.999Z</time>
      </trkpt>
      <trkpt lat="49.53203" lon="3.65953">
        <ele>80.31</ele>
        <time>2022-10-17T12:45:05.999Z</time>
      </trkpt>
      <trkpt lat="49.53191" lon="3.65958">
        <ele>80.31</ele>
        <time>2022-10-17T12:45:15.999Z</time>
      </trkpt>
      <trkpt lat="49.53181" lon="3.65958">
        <ele>80.31</ele>
        <time>2022-10-17T12:45:26.999Z</time>
      </trkpt>
      <trkpt lat="49.5317" lon="3.65959">
        <ele>80.31</ele>
        <time>2022-10-17T12:45:36.999Z</time>
      </trkpt>
      <trkpt lat="49.53159" lon="3.65961">
        <ele>80.31</ele>
        <time>2022-10-17T12:45:46.999Z</time>
      </trkpt>
      <trkpt lat="49.53148" lon="3.65956">
        <ele>80.31</ele>
        <time>2022-10-17T12:45:56.999Z</time>
      </trkpt>
      <trkpt lat="49.53136" lon="3.65956">
        <ele>80.31</ele>
        <time>2022-10-17T12:46:06.999Z</time>
      </trkpt>
      <trkpt lat="49.53125" lon="3.65958">
        <ele>80.31</ele>
        <time>2022-10-17T12:46:16.999Z</time>
      </trkpt>
      <trkpt lat="49.53117" lon="3.65956">
        <ele>80.31</ele>
        <time>2022-10-17T12:46:26.999Z</time>
      </trkpt>
      <trkpt lat="49.53105" lon="3.65957">
        <ele>80.31</ele>
        <time>2022-10-17T12:46:36.999Z</time>
      </trkpt>
      <trkpt lat="49.53096" lon="3.65955">
        <ele>80.31</ele>
        <time>2022-10-17T12:46:46.999Z</time>
      </trkpt>
      <trkpt lat="49.53085" lon="3.65953">
        <ele>80.31</ele>
        <time>2022-10-17T12:46:56.999Z</time>
      </trkpt>
      <trkpt lat="49.53073" lon="3.65957">
        <ele>80.31</ele>
        <time>2022-10-17T12:47:06.999Z</time>
      </trkpt>
      <trkpt lat="49.53064" lon="3.65959">
        <ele>81.6</ele>
        <time>2022-10-17T12:47:16.999Z</time>
      </trkpt>
      <trkpt lat="49.5305" lon="3.65959">
        <ele>81.51</ele>
        <time>2022-10-17T12:47:26.999Z</time>
      </trkpt>
      <trkpt lat="49.53037" lon="3.65953">
        <ele>81.71</ele>
        <time>2022-10-17T12:47:36.999Z</time>
      </trkpt>
      <trkpt lat="49.53028" lon="3.65944">
        <ele>81.71</ele>
        <time>2022-10-17T12:47:46.999Z</time>
      </trkpt>
      <trkpt lat="49.53021" lon="3.65939">
        <ele>81.91</ele>
        <time>2022-10-17T12:47:56.999Z</time>
      </trkpt>
      <trkpt lat="49.53016" lon="3.65939">
        <ele>81.71</ele>
        <time>2022-10-17T12:48:06.999Z</time>
      </trkpt>
      <trkpt lat="49.53002" lon="3.65941">
        <ele>81.61</ele>
        <time>2022-10-17T12:48:16.999Z</time>
      </trkpt>
      <trkpt lat="49.52992" lon="3.65942">
        <ele>82.01</ele>
        <time>2022-10-17T12:48:26.999Z</time>
      </trkpt>
      <trkpt lat="49.52983" lon="3.65944">
        <ele>80.31</ele>
        <time>2022-10-17T12:48:36.999Z</time>
      </trkpt>
      <trkpt lat="49.52975" lon="3.65945">
        <ele>80.31</ele>
        <time>2022-10-17T12:48:46.999Z</time>
      </trkpt>
      <trkpt lat="49.52965" lon="3.6595">
        <ele>81.9</ele>
        <time>2022-10-17T12:48:56.999Z</time>
      </trkpt>
      <trkpt lat="49.52954" lon="3.65957">
        <ele>80.34</ele>
        <time>2022-10-17T12:49:06.999Z</time>
      </trkpt>
      <trkpt lat="49.52943" lon="3.65964">
        <ele>82</ele>
        <time>2022-10-17T12:49:16.999Z</time>
      </trkpt>
      <trkpt lat="49.52934" lon="3.65968">
        <ele>82.01</ele>
        <time>2022-10-17T12:49:26.999Z</time>
      </trkpt>
      <trkpt lat="49.52923" lon="3.65972">
        <ele>80.31</ele>
        <time>2022-10-17T12:49:36.999Z</time>
      </trkpt>
      <trkpt lat="49.52916" lon="3.65979">
        <ele>80.31</ele>
        <time>2022-10-17T12:49:46.999Z</time>
      </trkpt>
      <trkpt lat="49.52907" lon="3.65988">
        <ele>82.31</ele>
        <time>2022-10-17T12:49:56.999Z</time>
      </trkpt>
      <trkpt lat="49.52897" lon="3.65993">
        <ele>82.21</ele>
        <time>2022-10-17T12:50:06.999Z</time>
      </trkpt>
      <trkpt lat="49.52883" lon="3.65996">
        <ele>80.31</ele>
        <time>2022-10-17T12:50:16.999Z</time>
      </trkpt>
      <trkpt lat="49.52873" lon="3.66003">
        <ele>82.47</ele>
        <time>2022-10-17T12:50:26.999Z</time>
      </trkpt>
      <trkpt lat="49.52866" lon="3.66012">
        <ele>82.71</ele>
        <time>2022-10-17T12:50:36.999Z</time>
      </trkpt>
      <trkpt lat="49.52858" lon="3.66021">
        <ele>82.71</ele>
        <time>2022-10-17T12:50:46.999Z</time>
      </trkpt>
      <trkpt lat="49.52846" lon="3.66028">
        <ele>82.61</ele>
        <time>2022-10-17T12:50:56.999Z</time>
      </trkpt>
      <trkpt lat="49.52836" lon="3.66037">
        <ele>82.71</ele>
        <time>2022-10-17T12:51:06.999Z</time>
      </trkpt>
      <trkpt lat="49.52829" lon="3.66044">
        <ele>82.78</ele>
        <time>2022-10-17T12:51:16.999Z</time>
      </trkpt>
      <trkpt lat="49.52819" lon="3.6605">
        <ele>82.81</ele>
        <time>2022-10-17T12:51:26.999Z</time>
      </trkpt>
      <trkpt lat="49.52808" lon="3.66053">
        <ele>82.91</ele>
        <time>2022-10-17T12:51:36.999Z</time>
      </trkpt>
      <trkpt lat="49.52798" lon="3.66056">
        <ele>82.91</ele>
        <time>2022-10-17T12:51:46.999Z</time>
      </trkpt>
      <trkpt lat="49.52785" lon="3.66055">
        <ele>83.21</ele>
        <time>2022-10-17T12:51:56.999Z</time>
      </trkpt>
      <trkpt lat="49.52775" lon="3.66059">
        <ele>83.21</ele>
        <time>2022-10-17T12:52:06.999Z</time>
      </trkpt>
      <trkpt lat="49.52766" lon="3.66066">
        <ele>83.31</ele>
        <time>2022-10-17T12:52:16.999Z</time>
      </trkpt>
      <trkpt lat="49.52758" lon="3.66074">
        <ele>83.21</ele>
        <time>2022-10-17T12:52:26.999Z</time>
      </trkpt>
      <trkpt lat="49.52756" lon="3.66079">
        <ele>83.21</ele>
        <time>2022-10-17T12:52:36.999Z</time>
      </trkpt>
      <trkpt lat="49.52752" lon="3.66074">
        <ele>83.51</ele>
        <time>2022-10-17T12:52:46.999Z</time>
      </trkpt>
      <trkpt lat="49.52751" lon="3.66073">
        <ele>83.49</ele>
        <time>2022-10-17T12:52:57.999Z</time>
      </trkpt>
      <trkpt lat="49.52743" lon="3.6606">
        <ele>83.31</ele>
        <time>2022-10-17T12:53:07.999Z</time>
      </trkpt>
      <trkpt lat="49.52744" lon="3.66046">
        <ele>83.51</ele>
        <time>2022-10-17T12:53:17.999Z</time>
      </trkpt>
      <trkpt lat="49.52737" lon="3.66037">
        <ele>83.51</ele>
        <time>2022-10-17T12:53:27.999Z</time>
      </trkpt>
      <trkpt lat="49.52726" lon="3.66022">
        <ele>83.53</ele>
        <time>2022-10-17T12:53:37.999Z</time>
      </trkpt>
      <trkpt lat="49.52722" lon="3.66017">
        <ele>83.81</ele>
        <time>2022-10-17T12:53:47.999Z</time>
      </trkpt>
      <trkpt lat="49.52715" lon="3.6601">
        <ele>83.81</ele>
        <time>2022-10-17T12:53:57.999Z</time>
      </trkpt>
      <trkpt lat="49.52702" lon="3.66">
        <ele>83.53</ele>
        <time>2022-10-17T12:54:07.999Z</time>
      </trkpt>
      <trkpt lat="49.52692" lon="3.65991">
        <ele>83.71</ele>
        <time>2022-10-17T12:54:17.999Z</time>
      </trkpt>
      <trkpt lat="49.52683" lon="3.65985">
        <ele>83.71</ele>
        <time>2022-10-17T12:54:27.999Z</time>
      </trkpt>
      <trkpt lat="49.52673" lon="3.65982">
        <ele>83.71</ele>
        <time>2022-10-17T12:54:37.999Z</time>
      </trkpt>
      <trkpt lat="49.52662" lon="3.65975">
        <ele>83.72</ele>
        <time>2022-10-17T12:54:47.999Z</time>
      </trkpt>
      <trkpt lat="49.52655" lon="3.65965">
        <ele>83.71</ele>
        <time>2022-10-17T12:54:57.999Z</time>
      </trkpt>
      <trkpt lat="49.52646" lon="3.6596">
        <ele>83.91</ele>
        <time>2022-10-17T12:55:07.999Z</time>
      </trkpt>
      <trkpt lat="49.52637" lon="3.65958">
        <ele>83.71</ele>
        <time>2022-10-17T12:55:17.999Z</time>
      </trkpt>
      <trkpt lat="49.52629" lon="3.65951">
        <ele>83.8</ele>
        <time>2022-10-17T12:55:27.999Z</time>
      </trkpt>
      <trkpt lat="49.52618" lon="3.65946">
        <ele>83.51</ele>
        <time>2022-10-17T12:55:37.999Z</time>
      </trkpt>
      <trkpt lat="49.52606" lon="3.6594">
        <ele>85.71</ele>
        <time>2022-10-17T12:55:47.999Z</time>
      </trkpt>
      <trkpt lat="49.52592" lon="3.65936">
        <ele>85.24</ele>
        <time>2022-10-17T12:55:58.999Z</time>
      </trkpt>
      <trkpt lat="49.52579" lon="3.65933">
        <ele>85.21</ele>
        <time>2022-10-17T12:56:08.999Z</time>
      </trkpt>
      <trkpt lat="49.52571" lon="3.65929">
        <ele>85.21</ele>
        <time>2022-10-17T12:56:18.999Z</time>
      </trkpt>
      <trkpt lat="49.52563" lon="3.65926">
        <ele>85.21</ele>
        <time>2022-10-17T12:56:28.999Z</time>
      </trkpt>
      <trkpt lat="49.52556" lon="3.6592">
        <ele>85.21</ele>
        <time>2022-10-17T12:56:38.999Z</time>
      </trkpt>
      <trkpt lat="49.52551" lon="3.65911">
        <ele>85.21</ele>
        <time>2022-10-17T12:56:48.999Z</time>
      </trkpt>
      <trkpt lat="49.5254" lon="3.65903">
        <ele>85.21</ele>
        <time>2022-10-17T12:56:58.999Z</time>
      </trkpt>
      <trkpt lat="49.5253" lon="3.65905">
        <ele>85.21</ele>
        <time>2022-10-17T12:57:08.999Z</time>
      </trkpt>
      <trkpt lat="49.52521" lon="3.659">
        <ele>85.21</ele>
        <time>2022-10-17T12:57:18.999Z</time>
      </trkpt>
      <trkpt lat="49.52508" lon="3.65891">
        <ele>85.21</ele>
        <time>2022-10-17T12:57:28.999Z</time>
      </trkpt>
      <trkpt lat="49.52498" lon="3.65885">
        <ele>85.21</ele>
        <time>2022-10-17T12:57:38.999Z</time>
      </trkpt>
      <trkpt lat="49.52492" lon="3.65879">
        <ele>85.21</ele>
        <time>2022-10-17T12:57:48.999Z</time>
      </trkpt>
      <trkpt lat="49.52484" lon="3.65878">
        <ele>86.31</ele>
        <time>2022-10-17T12:57:58.999Z</time>
      </trkpt>
      <trkpt lat="49.52473" lon="3.65884">
        <ele>86.31</ele>
        <time>2022-10-17T12:58:08.999Z</time>
      </trkpt>
      <trkpt lat="49.52462" lon="3.65888">
        <ele>86.31</ele>
        <time>2022-10-17T12:58:18.999Z</time>
      </trkpt>
      <trkpt lat="49.52453" lon="3.6589">
        <ele>86.31</ele>
        <time>2022-10-17T12:58:28.999Z</time>
      </trkpt>
      <trkpt lat="49.52449" lon="3.65886">
        <ele>86.51</ele>
        <time>2022-10-17T12:58:38.999Z</time>
      </trkpt>
      <trkpt lat="49.52442" lon="3.6588">
        <ele>86.31</ele>
        <time>2022-10-17T12:58:48.999Z</time>
      </trkpt>
      <trkpt lat="49.52433" lon="3.65877">
        <ele>86.91</ele>
        <time>2022-10-17T12:58:58.999Z</time>
      </trkpt>
      <trkpt lat="49.52424" lon="3.65871">
        <ele>86.87</ele>
        <time>2022-10-17T12:59:08.999Z</time>
      </trkpt>
      <trkpt lat="49.52428" lon="3.65856">
        <ele>86.91</ele>
        <time>2022-10-17T12:59:18.999Z</time>
      </trkpt>
      <trkpt lat="49.52432" lon="3.65838">
        <ele>86.91</ele>
        <time>2022-10-17T12:59:28.999Z</time>
      </trkpt>
      <trkpt lat="49.5243" lon="3.65824">
        <ele>86.31</ele>
        <time>2022-10-17T12:59:38.999Z</time>
      </trkpt>
      <trkpt lat="49.52424" lon="3.65814">
        <ele>86.91</ele>
        <time>2022-10-17T12:59:48.999Z</time>
      </trkpt>
      <trkpt lat="49.52418" lon="3.65803">
        <ele>86.91</ele>
        <time>2022-10-17T12:59:58.999Z</time>
      </trkpt>
      <trkpt lat="49.52412" lon="3.65791">
        <ele>86.91</ele>
        <time>2022-10-17T13:00:08.999Z</time>
      </trkpt>
      <trkpt lat="49.52406" lon="3.65777">
        <ele>85.71</ele>
        <time>2022-10-17T13:00:18.999Z</time>
      </trkpt>
      <trkpt lat="49.52399" lon="3.65766">
        <ele>85.71</ele>
        <time>2022-10-17T13:00:28.999Z</time>
      </trkpt>
      <trkpt lat="49.52391" lon="3.65752">
        <ele>87.51</ele>
        <time>2022-10-17T13:00:38.999Z</time>
      </trkpt>
      <trkpt lat="49.52384" lon="3.65739">
        <ele>87.51</ele>
        <time>2022-10-17T13:00:48.999Z</time>
      </trkpt>
      <trkpt lat="49.52376" lon="3.65726">
        <ele>87.51</ele>
        <time>2022-10-17T13:00:58.999Z</time>
      </trkpt>
      <trkpt lat="49.52372" lon="3.6572">
        <ele>88.1</ele>
        <time>2022-10-17T13:01:08.999Z</time>
      </trkpt>
      <trkpt lat="49.52372" lon="3.6572">
        <ele>88.11</ele>
        <time>2022-10-17T13:01:19.999Z</time>
      </trkpt>
      <trkpt lat="49.52371" lon="3.65719">
        <ele>85.21</ele>
        <time>2022-10-17T13:01:31.999Z</time>
      </trkpt>
      <trkpt lat="49.52367" lon="3.65708">
        <ele>88.1</ele>
        <time>2022-10-17T13:01:41.999Z</time>
      </trkpt>
      <trkpt lat="49.52362" lon="3.65702">
        <ele>85.01</ele>
        <time>2022-10-17T13:01:51.999Z</time>
      </trkpt>
      <trkpt lat="49.52354" lon="3.65691">
        <ele>88.11</ele>
        <time>2022-10-17T13:02:01.999Z</time>
      </trkpt>
      <trkpt lat="49.52342" lon="3.65681">
        <ele>88.91</ele>
        <time>2022-10-17T13:02:11.999Z</time>
      </trkpt>
      <trkpt lat="49.52333" lon="3.6567">
        <ele>89.91</ele>
        <time>2022-10-17T13:02:21.999Z</time>
      </trkpt>
      <trkpt lat="49.52325" lon="3.65659">
        <ele>89.91</ele>
        <time>2022-10-17T13:02:31.999Z</time>
      </trkpt>
      <trkpt lat="49.52317" lon="3.65646">
        <ele>90.1</ele>
        <time>2022-10-17T13:02:42.999Z</time>
      </trkpt>
      <trkpt lat="49.52304" lon="3.65637">
        <ele>90.11</ele>
        <time>2022-10-17T13:02:52.999Z</time>
      </trkpt>
      <trkpt lat="49.52292" lon="3.65628">
        <ele>90.11</ele>
        <time>2022-10-17T13:03:02.999Z</time>
      </trkpt>
      <trkpt lat="49.52282" lon="3.65621">
        <ele>84.81</ele>
        <time>2022-10-17T13:03:12.999Z</time>
      </trkpt>
      <trkpt lat="49.52275" lon="3.65612">
        <ele>88.38</ele>
        <time>2022-10-17T13:03:22.999Z</time>
      </trkpt>
      <trkpt lat="49.52269" lon="3.65598">
        <ele>84.83</ele>
        <time>2022-10-17T13:03:32.999Z</time>
      </trkpt>
      <trkpt lat="49.52259" lon="3.65585">
        <ele>84.81</ele>
        <time>2022-10-17T13:03:42.000Z</time>
      </trkpt>
      <trkpt lat="49.52252" lon="3.65576">
        <ele>84.82</ele>
        <time>2022-10-17T13:03:52.000Z</time>
      </trkpt>
      <trkpt lat="49.5224" lon="3.65567">
        <ele>84.82</ele>
        <time>2022-10-17T13:04:02.000Z</time>
      </trkpt>
      <trkpt lat="49.52229" lon="3.65561">
        <ele>89.9</ele>
        <time>2022-10-17T13:04:12.000Z</time>
      </trkpt>
      <trkpt lat="49.52223" lon="3.65552">
        <ele>89.92</ele>
        <time>2022-10-17T13:04:22.000Z</time>
      </trkpt>
      <trkpt lat="49.52217" lon="3.65543">
        <ele>89.92</ele>
        <time>2022-10-17T13:04:32.000Z</time>
      </trkpt>
      <trkpt lat="49.52205" lon="3.65529">
        <ele>89.92</ele>
        <time>2022-10-17T13:04:42.000Z</time>
      </trkpt>
      <trkpt lat="49.52195" lon="3.65511">
        <ele>89.92</ele>
        <time>2022-10-17T13:04:52.000Z</time>
      </trkpt>
      <trkpt lat="49.52188" lon="3.65501">
        <ele>89.92</ele>
        <time>2022-10-17T13:05:02.000Z</time>
      </trkpt>
      <trkpt lat="49.52188" lon="3.65501">
        <ele>89.92</ele>
        <time>2022-10-17T13:05:12.000Z</time>
      </trkpt>
      <trkpt lat="49.52177" lon="3.65496">
        <ele>89.92</ele>
        <time>2022-10-17T13:05:22.000Z</time>
      </trkpt>
      <trkpt lat="49.52163" lon="3.65501">
        <ele>96.41</ele>
        <time>2022-10-17T13:05:32.000Z</time>
      </trkpt>
      <trkpt lat="49.5215" lon="3.65507">
        <ele>96.42</ele>
        <time>2022-10-17T13:05:42.000Z</time>
      </trkpt>
      <trkpt lat="49.5214" lon="3.6551">
        <ele>85.82</ele>
        <time>2022-10-17T13:05:52.000Z</time>
      </trkpt>
      <trkpt lat="49.5213" lon="3.65511">
        <ele>85.82</ele>
        <time>2022-10-17T13:06:02.000Z</time>
      </trkpt>
      <trkpt lat="49.52118" lon="3.65512">
        <ele>85.42</ele>
        <time>2022-10-17T13:06:12.000Z</time>
      </trkpt>
      <trkpt lat="49.52108" lon="3.65511">
        <ele>85.82</ele>
        <time>2022-10-17T13:06:22.000Z</time>
      </trkpt>
      <trkpt lat="49.52098" lon="3.65514">
        <ele>85.82</ele>
        <time>2022-10-17T13:06:32.000Z</time>
      </trkpt>
      <trkpt lat="49.5209" lon="3.65519">
        <ele>85.82</ele>
        <time>2022-10-17T13:06:42.000Z</time>
      </trkpt>
      <trkpt lat="49.5208" lon="3.65524">
        <ele>85.82</ele>
        <time>2022-10-17T13:06:52.000Z</time>
      </trkpt>
      <trkpt lat="49.52068" lon="3.65532">
        <ele>85.82</ele>
        <time>2022-10-17T13:07:02.000Z</time>
      </trkpt>
      <trkpt lat="49.52057" lon="3.65539">
        <ele>85.91</ele>
        <time>2022-10-17T13:07:12.000Z</time>
      </trkpt>
      <trkpt lat="49.52049" lon="3.65547">
        <ele>85.82</ele>
        <time>2022-10-17T13:07:22.000Z</time>
      </trkpt>
      <trkpt lat="49.52039" lon="3.65554">
        <ele>86.92</ele>
        <time>2022-10-17T13:07:32.000Z</time>
      </trkpt>
      <trkpt lat="49.52031" lon="3.65559">
        <ele>86.92</ele>
        <time>2022-10-17T13:07:42.000Z</time>
      </trkpt>
      <trkpt lat="49.5202" lon="3.65565">
        <ele>86.92</ele>
        <time>2022-10-17T13:07:52.000Z</time>
      </trkpt>
      <trkpt lat="49.52006" lon="3.65574">
        <ele>86.92</ele>
        <time>2022-10-17T13:08:02.000Z</time>
      </trkpt>
      <trkpt lat="49.51995" lon="3.6558">
        <ele>87.22</ele>
        <time>2022-10-17T13:08:12.000Z</time>
      </trkpt>
      <trkpt lat="49.51987" lon="3.65584">
        <ele>87.02</ele>
        <time>2022-10-17T13:08:22.000Z</time>
      </trkpt>
      <trkpt lat="49.51986" lon="3.65584">
        <ele>87.02</ele>
        <time>2022-10-17T13:08:33.000Z</time>
      </trkpt>
      <trkpt lat="49.51977" lon="3.65594">
        <ele>87.02</ele>
        <time>2022-10-17T13:08:43.000Z</time>
      </trkpt>
      <trkpt lat="49.5197" lon="3.65608">
        <ele>89.42</ele>
        <time>2022-10-17T13:08:53.000Z</time>
      </trkpt>
      <trkpt lat="49.51967" lon="3.65614">
        <ele>89.62</ele>
        <time>2022-10-17T13:09:03.000Z</time>
      </trkpt>
      <trkpt lat="49.51959" lon="3.65601">
        <ele>89.62</ele>
        <time>2022-10-17T13:09:13.000Z</time>
      </trkpt>
      <trkpt lat="49.51954" lon="3.65584">
        <ele>87.02</ele>
        <time>2022-10-17T13:09:23.000Z</time>
      </trkpt>
      <trkpt lat="49.51951" lon="3.6557">
        <ele>86.64</ele>
        <time>2022-10-17T13:09:33.000Z</time>
      </trkpt>
      <trkpt lat="49.51946" lon="3.65554">
        <ele>86.52</ele>
        <time>2022-10-17T13:09:43.000Z</time>
      </trkpt>
      <trkpt lat="49.51941" lon="3.65539">
        <ele>86.52</ele>
        <time>2022-10-17T13:09:53.000Z</time>
      </trkpt>
      <trkpt lat="49.51936" lon="3.65521">
        <ele>86.52</ele>
        <time>2022-10-17T13:10:03.000Z</time>
      </trkpt>
      <trkpt lat="49.51933" lon="3.65504">
        <ele>86.42</ele>
        <time>2022-10-17T13:10:13.000Z</time>
      </trkpt>
      <trkpt lat="49.51933" lon="3.65502">
        <ele>86.42</ele>
        <time>2022-10-17T13:10:23.000Z</time>
      </trkpt>
      <trkpt lat="49.51928" lon="3.65495">
        <ele>86.42</ele>
        <time>2022-10-17T13:10:33.000Z</time>
      </trkpt>
      <trkpt lat="49.51922" lon="3.65486">
        <ele>86.42</ele>
        <time>2022-10-17T13:10:43.000Z</time>
      </trkpt>
      <trkpt lat="49.51919" lon="3.65481">
        <ele>86.42</ele>
        <time>2022-10-17T13:10:53.000Z</time>
      </trkpt>
      <trkpt lat="49.51915" lon="3.6547">
        <ele>86.42</ele>
        <time>2022-10-17T13:11:03.000Z</time>
      </trkpt>
      <trkpt lat="49.51908" lon="3.65451">
        <ele>86.42</ele>
        <time>2022-10-17T13:11:13.000Z</time>
      </trkpt>
      <trkpt lat="49.51901" lon="3.65431">
        <ele>86.7</ele>
        <time>2022-10-17T13:11:23.000Z</time>
      </trkpt>
      <trkpt lat="49.51897" lon="3.65418">
        <ele>86.72</ele>
        <time>2022-10-17T13:11:33.000Z</time>
      </trkpt>
      <trkpt lat="49.51891" lon="3.65405">
        <ele>86.72</ele>
        <time>2022-10-17T13:11:43.000Z</time>
      </trkpt>
      <trkpt lat="49.51887" lon="3.65386">
        <ele>86.72</ele>
        <time>2022-10-17T13:11:53.000Z</time>
      </trkpt>
      <trkpt lat="49.51886" lon="3.65367">
        <ele>86.57</ele>
        <time>2022-10-17T13:12:03.000Z</time>
      </trkpt>
      <trkpt lat="49.51888" lon="3.65352">
        <ele>86.52</ele>
        <time>2022-10-17T13:12:13.000Z</time>
      </trkpt>
      <trkpt lat="49.51899" lon="3.65343">
        <ele>86.52</ele>
        <time>2022-10-17T13:12:23.000Z</time>
      </trkpt>
      <trkpt lat="49.5191" lon="3.65334">
        <ele>86.42</ele>
        <time>2022-10-17T13:12:34.000Z</time>
      </trkpt>
      <trkpt lat="49.51922" lon="3.65324">
        <ele>85.93</ele>
        <time>2022-10-17T13:12:44.000Z</time>
      </trkpt>
      <trkpt lat="49.51932" lon="3.65316">
        <ele>85.92</ele>
        <time>2022-10-17T13:12:54.000Z</time>
      </trkpt>
      <trkpt lat="49.51941" lon="3.65306">
        <ele>85.92</ele>
        <time>2022-10-17T13:13:04.000Z</time>
      </trkpt>
      <trkpt lat="49.51953" lon="3.653">
        <ele>85.72</ele>
        <time>2022-10-17T13:13:14.000Z</time>
      </trkpt>
      <trkpt lat="49.51964" lon="3.65288">
        <ele>85.72</ele>
        <time>2022-10-17T13:13:24.000Z</time>
      </trkpt>
      <trkpt lat="49.51974" lon="3.6528">
        <ele>85.42</ele>
        <time>2022-10-17T13:13:34.000Z</time>
      </trkpt>
      <trkpt lat="49.51984" lon="3.6527">
        <ele>85.32</ele>
        <time>2022-10-17T13:13:44.000Z</time>
      </trkpt>
      <trkpt lat="49.51995" lon="3.65261">
        <ele>85.32</ele>
        <time>2022-10-17T13:13:54.000Z</time>
      </trkpt>
      <trkpt lat="49.52006" lon="3.65251">
        <ele>85.12</ele>
        <time>2022-10-17T13:14:04.000Z</time>
      </trkpt>
      <trkpt lat="49.52016" lon="3.65252">
        <ele>85.04</ele>
        <time>2022-10-17T13:14:14.000Z</time>
      </trkpt>
      <trkpt lat="49.52027" lon="3.65251">
        <ele>85.02</ele>
        <time>2022-10-17T13:14:24.000Z</time>
      </trkpt>
      <trkpt lat="49.52031" lon="3.65255">
        <ele>85.02</ele>
        <time>2022-10-17T13:14:34.000Z</time>
      </trkpt>
      <trkpt lat="49.5204" lon="3.65257">
        <ele>85.09</ele>
        <time>2022-10-17T13:14:44.000Z</time>
      </trkpt>
      <trkpt lat="49.52058" lon="3.6525">
        <ele>85.02</ele>
        <time>2022-10-17T13:14:54.000Z</time>
      </trkpt>
      <trkpt lat="49.5207" lon="3.65243">
        <ele>84.72</ele>
        <time>2022-10-17T13:15:04.000Z</time>
      </trkpt>
      <trkpt lat="49.52081" lon="3.65241">
        <ele>84.02</ele>
        <time>2022-10-17T13:15:14.000Z</time>
      </trkpt>
      <trkpt lat="49.52093" lon="3.65236">
        <ele>83.84</ele>
        <time>2022-10-17T13:15:24.000Z</time>
      </trkpt>
      <trkpt lat="49.52106" lon="3.65232">
        <ele>83.72</ele>
        <time>2022-10-17T13:15:34.000Z</time>
      </trkpt>
      <trkpt lat="49.52119" lon="3.65225">
        <ele>83.92</ele>
        <time>2022-10-17T13:15:44.000Z</time>
      </trkpt>
      <trkpt lat="49.52129" lon="3.65215">
        <ele>83.72</ele>
        <time>2022-10-17T13:15:54.000Z</time>
      </trkpt>
      <trkpt lat="49.52138" lon="3.65204">
        <ele>83.72</ele>
        <time>2022-10-17T13:16:04.000Z</time>
      </trkpt>
      <trkpt lat="49.52146" lon="3.65192">
        <ele>84.12</ele>
        <time>2022-10-17T13:16:14.000Z</time>
      </trkpt>
      <trkpt lat="49.52156" lon="3.65182">
        <ele>84.12</ele>
        <time>2022-10-17T13:16:24.000Z</time>
      </trkpt>
      <trkpt lat="49.52168" lon="3.65182">
        <ele>84.12</ele>
        <time>2022-10-17T13:16:34.000Z</time>
      </trkpt>
      <trkpt lat="49.52178" lon="3.65197">
        <ele>84.02</ele>
        <time>2022-10-17T13:16:44.000Z</time>
      </trkpt>
      <trkpt lat="49.52181" lon="3.65203">
        <ele>83.92</ele>
        <time>2022-10-17T13:16:54.000Z</time>
      </trkpt>
      <trkpt lat="49.52181" lon="3.65208">
        <ele>84.12</ele>
        <time>2022-10-17T13:17:04.000Z</time>
      </trkpt>
      <trkpt lat="49.52188" lon="3.65219">
        <ele>83.92</ele>
        <time>2022-10-17T13:17:14.000Z</time>
      </trkpt>
      <trkpt lat="49.52197" lon="3.65237">
        <ele>83.72</ele>
        <time>2022-10-17T13:17:24.000Z</time>
      </trkpt>
      <trkpt lat="49.52204" lon="3.65255">
        <ele>83.92</ele>
        <time>2022-10-17T13:17:34.000Z</time>
      </trkpt>
      <trkpt lat="49.52211" lon="3.65272">
        <ele>83.92</ele>
        <time>2022-10-17T13:17:44.000Z</time>
      </trkpt>
      <trkpt lat="49.52221" lon="3.65285">
        <ele>83.72</ele>
        <time>2022-10-17T13:17:54.000Z</time>
      </trkpt>
      <trkpt lat="49.52233" lon="3.65293">
        <ele>83.72</ele>
        <time>2022-10-17T13:18:04.000Z</time>
      </trkpt>
      <trkpt lat="49.52245" lon="3.65298">
        <ele>83.72</ele>
        <time>2022-10-17T13:18:14.000Z</time>
      </trkpt>
      <trkpt lat="49.52254" lon="3.65302">
        <ele>83.72</ele>
        <time>2022-10-17T13:18:24.000Z</time>
      </trkpt>
      <trkpt lat="49.52262" lon="3.65305">
        <ele>83.72</ele>
        <time>2022-10-17T13:18:34.000Z</time>
      </trkpt>
      <trkpt lat="49.5227" lon="3.65306">
        <ele>83.72</ele>
        <time>2022-10-17T13:18:44.000Z</time>
      </trkpt>
      <trkpt lat="49.52281" lon="3.65308">
        <ele>83.72</ele>
        <time>2022-10-17T13:18:54.000Z</time>
      </trkpt>
      <trkpt lat="49.52293" lon="3.65302">
        <ele>83.72</ele>
        <time>2022-10-17T13:19:04.000Z</time>
      </trkpt>
      <trkpt lat="49.52305" lon="3.65294">
        <ele>83.72</ele>
        <time>2022-10-17T13:19:14.000Z</time>
      </trkpt>
      <trkpt lat="49.52317" lon="3.65286">
        <ele>99.5</ele>
        <time>2022-10-17T13:19:24.000Z</time>
      </trkpt>
      <trkpt lat="49.52325" lon="3.65278">
        <ele>99.29</ele>
        <time>2022-10-17T13:19:34.000Z</time>
      </trkpt>
      <trkpt lat="49.52335" lon="3.65271">
        <ele>99.49</ele>
        <time>2022-10-17T13:19:44.000Z</time>
      </trkpt>
      <trkpt lat="49.52344" lon="3.65262">
        <ele>99.94</ele>
        <time>2022-10-17T13:19:54.000Z</time>
      </trkpt>
      <trkpt lat="49.52355" lon="3.65256">
        <ele>100.32</ele>
        <time>2022-10-17T13:20:04.000Z</time>
      </trkpt>
      <trkpt lat="49.52365" lon="3.6525">
        <ele>100.1</ele>
        <time>2022-10-17T13:20:14.000Z</time>
      </trkpt>
      <trkpt lat="49.52373" lon="3.65241">
        <ele>99.69</ele>
        <time>2022-10-17T13:20:24.000Z</time>
      </trkpt>
      <trkpt lat="49.5238" lon="3.65228">
        <ele>98.54</ele>
        <time>2022-10-17T13:20:34.000Z</time>
      </trkpt>
      <trkpt lat="49.52389" lon="3.65216">
        <ele>97.43</ele>
        <time>2022-10-17T13:20:44.000Z</time>
      </trkpt>
      <trkpt lat="49.52398" lon="3.6521">
        <ele>96.71</ele>
        <time>2022-10-17T13:20:54.000Z</time>
      </trkpt>
      <trkpt lat="49.52409" lon="3.65203">
        <ele>96.17</ele>
        <time>2022-10-17T13:21:04.000Z</time>
      </trkpt>
      <trkpt lat="49.52419" lon="3.65193">
        <ele>96.56</ele>
        <time>2022-10-17T13:21:14.000Z</time>
      </trkpt>
      <trkpt lat="49.52429" lon="3.65183">
        <ele>97.77</ele>
        <time>2022-10-17T13:21:24.000Z</time>
      </trkpt>
      <trkpt lat="49.5244" lon="3.65179">
        <ele>99.23</ele>
        <time>2022-10-17T13:21:34.000Z</time>
      </trkpt>
      <trkpt lat="49.5245" lon="3.65173">
        <ele>100.13</ele>
        <time>2022-10-17T13:21:44.000Z</time>
      </trkpt>
      <trkpt lat="49.52461" lon="3.65163">
        <ele>100.74</ele>
        <time>2022-10-17T13:21:54.000Z</time>
      </trkpt>
      <trkpt lat="49.52471" lon="3.65159">
        <ele>100.91</ele>
        <time>2022-10-17T13:22:04.000Z</time>
      </trkpt>
      <trkpt lat="49.5248" lon="3.65153">
        <ele>100.28</ele>
        <time>2022-10-17T13:22:14.000Z</time>
      </trkpt>
      <trkpt lat="49.52487" lon="3.65146">
        <ele>99.1</ele>
        <time>2022-10-17T13:22:24.000Z</time>
      </trkpt>
      <trkpt lat="49.52498" lon="3.65139">
        <ele>99.5</ele>
        <time>2022-10-17T13:22:34.000Z</time>
      </trkpt>
      <trkpt lat="49.5251" lon="3.65135">
        <ele>100.84</ele>
        <time>2022-10-17T13:22:44.000Z</time>
      </trkpt>
      <trkpt lat="49.52519" lon="3.65126">
        <ele>101.45</ele>
        <time>2022-10-17T13:22:54.000Z</time>
      </trkpt>
      <trkpt lat="49.52525" lon="3.65121">
        <ele>100.45</ele>
        <time>2022-10-17T13:23:04.000Z</time>
      </trkpt>
      <trkpt lat="49.52535" lon="3.65112">
        <ele>98.94</ele>
        <time>2022-10-17T13:23:14.000Z</time>
      </trkpt>
      <trkpt lat="49.52543" lon="3.65107">
        <ele>97.74</ele>
        <time>2022-10-17T13:23:24.000Z</time>
      </trkpt>
      <trkpt lat="49.52555" lon="3.651">
        <ele>97.62</ele>
        <time>2022-10-17T13:23:34.000Z</time>
      </trkpt>
      <trkpt lat="49.52564" lon="3.65091">
        <ele>97.11</ele>
        <time>2022-10-17T13:23:44.000Z</time>
      </trkpt>
      <trkpt lat="49.52575" lon="3.65084">
        <ele>96.87</ele>
        <time>2022-10-17T13:23:54.000Z</time>
      </trkpt>
      <trkpt lat="49.52585" lon="3.65076">
        <ele>96.95</ele>
        <time>2022-10-17T13:24:04.000Z</time>
      </trkpt>
      <trkpt lat="49.52597" lon="3.65069">
        <ele>97.1</ele>
        <time>2022-10-17T13:24:14.000Z</time>
      </trkpt>
      <trkpt lat="49.52607" lon="3.65064">
        <ele>97.02</ele>
        <time>2022-10-17T13:24:24.000Z</time>
      </trkpt>
      <trkpt lat="49.52616" lon="3.65059">
        <ele>96.45</ele>
        <time>2022-10-17T13:24:34.000Z</time>
      </trkpt>
      <trkpt lat="49.52628" lon="3.65056">
        <ele>95.63</ele>
        <time>2022-10-17T13:24:44.000Z</time>
      </trkpt>
      <trkpt lat="49.52638" lon="3.65052">
        <ele>93.99</ele>
        <time>2022-10-17T13:24:54.000Z</time>
      </trkpt>
      <trkpt lat="49.52646" lon="3.65045">
        <ele>92.67</ele>
        <time>2022-10-17T13:25:04.000Z</time>
      </trkpt>
      <trkpt lat="49.52656" lon="3.65038">
        <ele>91.98</ele>
        <time>2022-10-17T13:25:14.000Z</time>
      </trkpt>
      <trkpt lat="49.52665" lon="3.65031">
        <ele>91.75</ele>
        <time>2022-10-17T13:25:24.000Z</time>
      </trkpt>
      <trkpt lat="49.52675" lon="3.65024">
        <ele>91.28</ele>
        <time>2022-10-17T13:25:34.000Z</time>
      </trkpt>
      <trkpt lat="49.52686" lon="3.65015">
        <ele>91.81</ele>
        <time>2022-10-17T13:25:44.000Z</time>
      </trkpt>
      <trkpt lat="49.52696" lon="3.65006">
        <ele>92.67</ele>
        <time>2022-10-17T13:25:54.000Z</time>
      </trkpt>
      <trkpt lat="49.52705" lon="3.64996">
        <ele>93.17</ele>
        <time>2022-10-17T13:26:04.000Z</time>
      </trkpt>
      <trkpt lat="49.52714" lon="3.64983">
        <ele>94.09</ele>
        <time>2022-10-17T13:26:14.000Z</time>
      </trkpt>
      <trkpt lat="49.52725" lon="3.64973">
        <ele>95.01</ele>
        <time>2022-10-17T13:26:24.000Z</time>
      </trkpt>
      <trkpt lat="49.52734" lon="3.64961">
        <ele>95.23</ele>
        <time>2022-10-17T13:26:34.000Z</time>
      </trkpt>
      <trkpt lat="49.52741" lon="3.64949">
        <ele>96.13</ele>
        <time>2022-10-17T13:26:44.000Z</time>
      </trkpt>
      <trkpt lat="49.52749" lon="3.64937">
        <ele>97.23</ele>
        <time>2022-10-17T13:26:54.000Z</time>
      </trkpt>
      <trkpt lat="49.52755" lon="3.64921">
        <ele>98.24</ele>
        <time>2022-10-17T13:27:04.000Z</time>
      </trkpt>
      <trkpt lat="49.52761" lon="3.64908">
        <ele>98.27</ele>
        <time>2022-10-17T13:27:14.000Z</time>
      </trkpt>
      <trkpt lat="49.5277" lon="3.64897">
        <ele>97.61</ele>
        <time>2022-10-17T13:27:24.000Z</time>
      </trkpt>
      <trkpt lat="49.5278" lon="3.64884">
        <ele>96.68</ele>
        <time>2022-10-17T13:27:34.000Z</time>
      </trkpt>
      <trkpt lat="49.52789" lon="3.64873">
        <ele>96.6</ele>
        <time>2022-10-17T13:27:44.000Z</time>
      </trkpt>
      <trkpt lat="49.52798" lon="3.64863">
        <ele>96.93</ele>
        <time>2022-10-17T13:27:54.000Z</time>
      </trkpt>
      <trkpt lat="49.52806" lon="3.64852">
        <ele>97.1</ele>
        <time>2022-10-17T13:28:04.000Z</time>
      </trkpt>
      <trkpt lat="49.52813" lon="3.6484">
        <ele>97.07</ele>
        <time>2022-10-17T13:28:14.000Z</time>
      </trkpt>
      <trkpt lat="49.52819" lon="3.6483">
        <ele>97.23</ele>
        <time>2022-10-17T13:28:24.000Z</time>
      </trkpt>
      <trkpt lat="49.52826" lon="3.64817">
        <ele>97.31</ele>
        <time>2022-10-17T13:28:34.000Z</time>
      </trkpt>
      <trkpt lat="49.52836" lon="3.64806">
        <ele>97.42</ele>
        <time>2022-10-17T13:28:44.000Z</time>
      </trkpt>
      <trkpt lat="49.52844" lon="3.64796">
        <ele>97.43</ele>
        <time>2022-10-17T13:28:54.000Z</time>
      </trkpt>
      <trkpt lat="49.52852" lon="3.64788">
        <ele>97.63</ele>
        <time>2022-10-17T13:29:04.000Z</time>
      </trkpt>
      <trkpt lat="49.52861" lon="3.64778">
        <ele>98.13</ele>
        <time>2022-10-17T13:29:14.000Z</time>
      </trkpt>
      <trkpt lat="49.52871" lon="3.64768">
        <ele>98.38</ele>
        <time>2022-10-17T13:29:24.000Z</time>
      </trkpt>
      <trkpt lat="49.5288" lon="3.64754">
        <ele>97.95</ele>
        <time>2022-10-17T13:29:34.000Z</time>
      </trkpt>
      <trkpt lat="49.52888" lon="3.6474">
        <ele>98.01</ele>
        <time>2022-10-17T13:29:44.000Z</time>
      </trkpt>
      <trkpt lat="49.52896" lon="3.64726">
        <ele>98.38</ele>
        <time>2022-10-17T13:29:54.000Z</time>
      </trkpt>
      <trkpt lat="49.52903" lon="3.64716">
        <ele>98.7</ele>
        <time>2022-10-17T13:30:04.000Z</time>
      </trkpt>
      <trkpt lat="49.52912" lon="3.64703">
        <ele>99.03</ele>
        <time>2022-10-17T13:30:14.000Z</time>
      </trkpt>
      <trkpt lat="49.5292" lon="3.64691">
        <ele>99.58</ele>
        <time>2022-10-17T13:30:24.000Z</time>
      </trkpt>
      <trkpt lat="49.52928" lon="3.64678">
        <ele>100.29</ele>
        <time>2022-10-17T13:30:34.000Z</time>
      </trkpt>
      <trkpt lat="49.52936" lon="3.64666">
        <ele>100.85</ele>
        <time>2022-10-17T13:30:44.000Z</time>
      </trkpt>
      <trkpt lat="49.52944" lon="3.64655">
        <ele>101.06</ele>
        <time>2022-10-17T13:30:54.000Z</time>
      </trkpt>
      <trkpt lat="49.52952" lon="3.6464">
        <ele>100.47</ele>
        <time>2022-10-17T13:31:04.000Z</time>
      </trkpt>
      <trkpt lat="49.52951" lon="3.64641">
        <ele>99.16</ele>
        <time>2022-10-17T13:31:19.000Z</time>
      </trkpt>
      <trkpt lat="49.52942" lon="3.6465">
        <ele>97.92</ele>
        <time>2022-10-17T13:31:29.000Z</time>
      </trkpt>
      <trkpt lat="49.52939" lon="3.6465">
        <ele>97.51</ele>
        <time>2022-10-17T13:31:39.000Z</time>
      </trkpt>
      <trkpt lat="49.5294" lon="3.6465">
        <ele>96.86</ele>
        <time>2022-10-17T13:31:49.000Z</time>
      </trkpt>
      <trkpt lat="49.52938" lon="3.64652">
        <ele>96.13</ele>
        <time>2022-10-17T13:31:59.000Z</time>
      </trkpt>
      <trkpt lat="49.52942" lon="3.6465">
        <ele>94.83</ele>
        <time>2022-10-17T13:32:09.000Z</time>
      </trkpt>
      <trkpt lat="49.52952" lon="3.6465">
        <ele>92.71</ele>
        <time>2022-10-17T13:32:19.000Z</time>
      </trkpt>
      <trkpt lat="49.52956" lon="3.64647">
        <ele>92.07</ele>
        <time>2022-10-17T13:32:29.000Z</time>
      </trkpt>
      <trkpt lat="49.52957" lon="3.64647">
        <ele>92.32</ele>
        <time>2022-10-17T13:32:46.000Z</time>
      </trkpt>
      <trkpt lat="49.52959" lon="3.64646">
        <ele>92.8</ele>
        <time>2022-10-17T13:32:56.000Z</time>
      </trkpt>
      <trkpt lat="49.52959" lon="3.64645">
        <ele>93.31</ele>
        <time>2022-10-17T13:33:09.000Z</time>
      </trkpt>
      <trkpt lat="49.52967" lon="3.64634">
        <ele>93.2</ele>
        <time>2022-10-17T13:33:19.000Z</time>
      </trkpt>
      <trkpt lat="49.52972" lon="3.64623">
        <ele>93.16</ele>
        <time>2022-10-17T13:33:29.000Z</time>
      </trkpt>
      <trkpt lat="49.52978" lon="3.64612">
        <ele>93.32</ele>
        <time>2022-10-17T13:33:39.000Z</time>
      </trkpt>
      <trkpt lat="49.52986" lon="3.64603">
        <ele>92.9</ele>
        <time>2022-10-17T13:33:49.000Z</time>
      </trkpt>
      <trkpt lat="49.52995" lon="3.64592">
        <ele>92.19</ele>
        <time>2022-10-17T13:33:59.000Z</time>
      </trkpt>
      <trkpt lat="49.53001" lon="3.64582">
        <ele>91.55</ele>
        <time>2022-10-17T13:34:09.000Z</time>
      </trkpt>
      <trkpt lat="49.5301" lon="3.64568">
        <ele>91.91</ele>
        <time>2022-10-17T13:34:19.000Z</time>
      </trkpt>
      <trkpt lat="49.5302" lon="3.64557">
        <ele>92.33</ele>
        <time>2022-10-17T13:34:29.000Z</time>
      </trkpt>
      <trkpt lat="49.53027" lon="3.64551">
        <ele>92.31</ele>
        <time>2022-10-17T13:34:39.000Z</time>
      </trkpt>
      <trkpt lat="49.53035" lon="3.64533">
        <ele>92.31</ele>
        <time>2022-10-17T13:34:49.000Z</time>
      </trkpt>
      <trkpt lat="49.53041" lon="3.64526">
        <ele>92.89</ele>
        <time>2022-10-17T13:34:59.000Z</time>
      </trkpt>
      <trkpt lat="49.53046" lon="3.64517">
        <ele>93.46</ele>
        <time>2022-10-17T13:35:09.000Z</time>
      </trkpt>
      <trkpt lat="49.53053" lon="3.64509">
        <ele>93.79</ele>
        <time>2022-10-17T13:35:19.000Z</time>
      </trkpt>
      <trkpt lat="49.53063" lon="3.64496">
        <ele>94.37</ele>
        <time>2022-10-17T13:35:29.000Z</time>
      </trkpt>
      <trkpt lat="49.53072" lon="3.64484">
        <ele>94.76</ele>
        <time>2022-10-17T13:35:39.000Z</time>
      </trkpt>
      <trkpt lat="49.5308" lon="3.64473">
        <ele>94.61</ele>
        <time>2022-10-17T13:35:49.000Z</time>
      </trkpt>
      <trkpt lat="49.53086" lon="3.64459">
        <ele>93.93</ele>
        <time>2022-10-17T13:35:59.000Z</time>
      </trkpt>
      <trkpt lat="49.53092" lon="3.64448">
        <ele>93.52</ele>
        <time>2022-10-17T13:36:09.000Z</time>
      </trkpt>
      <trkpt lat="49.53099" lon="3.64439">
        <ele>93.2</ele>
        <time>2022-10-17T13:36:19.000Z</time>
      </trkpt>
      <trkpt lat="49.53111" lon="3.64432">
        <ele>93</ele>
        <time>2022-10-17T13:36:29.000Z</time>
      </trkpt>
      <trkpt lat="49.53121" lon="3.64423">
        <ele>92.65</ele>
        <time>2022-10-17T13:36:39.000Z</time>
      </trkpt>
      <trkpt lat="49.53129" lon="3.64413">
        <ele>91.72</ele>
        <time>2022-10-17T13:36:49.000Z</time>
      </trkpt>
      <trkpt lat="49.53134" lon="3.64404">
        <ele>90.52</ele>
        <time>2022-10-17T13:36:59.000Z</time>
      </trkpt>
      <trkpt lat="49.53141" lon="3.64395">
        <ele>89.47</ele>
        <time>2022-10-17T13:37:09.000Z</time>
      </trkpt>
      <trkpt lat="49.53149" lon="3.64384">
        <ele>88.7</ele>
        <time>2022-10-17T13:37:19.000Z</time>
      </trkpt>
      <trkpt lat="49.53158" lon="3.64374">
        <ele>88.64</ele>
        <time>2022-10-17T13:37:29.000Z</time>
      </trkpt>
      <trkpt lat="49.53164" lon="3.64363">
        <ele>89.31</ele>
        <time>2022-10-17T13:37:39.000Z</time>
      </trkpt>
      <trkpt lat="49.53172" lon="3.64351">
        <ele>90.28</ele>
        <time>2022-10-17T13:37:49.000Z</time>
      </trkpt>
      <trkpt lat="49.53181" lon="3.64341">
        <ele>90.79</ele>
        <time>2022-10-17T13:37:59.000Z</time>
      </trkpt>
      <trkpt lat="49.53188" lon="3.64332">
        <ele>91.14</ele>
        <time>2022-10-17T13:38:09.000Z</time>
      </trkpt>
      <trkpt lat="49.53198" lon="3.64321">
        <ele>91.55</ele>
        <time>2022-10-17T13:38:19.000Z</time>
      </trkpt>
      <trkpt lat="49.53206" lon="3.64313">
        <ele>91.99</ele>
        <time>2022-10-17T13:38:29.000Z</time>
      </trkpt>
      <trkpt lat="49.53214" lon="3.64303">
        <ele>92.24</ele>
        <time>2022-10-17T13:38:39.000Z</time>
      </trkpt>
      <trkpt lat="49.53222" lon="3.64292">
        <ele>92.17</ele>
        <time>2022-10-17T13:38:49.000Z</time>
      </trkpt>
      <trkpt lat="49.53232" lon="3.64285">
        <ele>92.18</ele>
        <time>2022-10-17T13:38:59.000Z</time>
      </trkpt>
      <trkpt lat="49.53241" lon="3.64278">
        <ele>92.39</ele>
        <time>2022-10-17T13:39:09.000Z</time>
      </trkpt>
      <trkpt lat="49.53248" lon="3.64269">
        <ele>92.23</ele>
        <time>2022-10-17T13:39:19.000Z</time>
      </trkpt>
      <trkpt lat="49.53253" lon="3.64259">
        <ele>92.02</ele>
        <time>2022-10-17T13:39:29.000Z</time>
      </trkpt>
      <trkpt lat="49.53261" lon="3.64251">
        <ele>91.25</ele>
        <time>2022-10-17T13:39:39.000Z</time>
      </trkpt>
      <trkpt lat="49.53271" lon="3.64244">
        <ele>89.86</ele>
        <time>2022-10-17T13:39:49.000Z</time>
      </trkpt>
      <trkpt lat="49.53282" lon="3.64237">
        <ele>88.69</ele>
        <time>2022-10-17T13:39:59.000Z</time>
      </trkpt>
      <trkpt lat="49.53294" lon="3.64231">
        <ele>88.52</ele>
        <time>2022-10-17T13:40:09.000Z</time>
      </trkpt>
      <trkpt lat="49.53301" lon="3.64225">
        <ele>88.55</ele>
        <time>2022-10-17T13:40:19.000Z</time>
      </trkpt>
      <trkpt lat="49.53306" lon="3.64224">
        <ele>88.21</ele>
        <time>2022-10-17T13:40:29.000Z</time>
      </trkpt>
      <trkpt lat="49.53309" lon="3.64219">
        <ele>88.09</ele>
        <time>2022-10-17T13:40:39.000Z</time>
      </trkpt>
      <trkpt lat="49.53315" lon="3.64211">
        <ele>87.8</ele>
        <time>2022-10-17T13:40:49.000Z</time>
      </trkpt>
      <trkpt lat="49.53319" lon="3.64208">
        <ele>87.22</ele>
        <time>2022-10-17T13:40:59.000Z</time>
      </trkpt>
      <trkpt lat="49.53325" lon="3.64198">
        <ele>86.36</ele>
        <time>2022-10-17T13:41:09.000Z</time>
      </trkpt>
      <trkpt lat="49.53338" lon="3.64186">
        <ele>85.4</ele>
        <time>2022-10-17T13:41:19.000Z</time>
      </trkpt>
      <trkpt lat="49.53346" lon="3.64171">
        <ele>84.46</ele>
        <time>2022-10-17T13:41:29.000Z</time>
      </trkpt>
      <trkpt lat="49.53355" lon="3.6416">
        <ele>83.56</ele>
        <time>2022-10-17T13:41:39.000Z</time>
      </trkpt>
      <trkpt lat="49.53364" lon="3.64149">
        <ele>82.73</ele>
        <time>2022-10-17T13:41:49.000Z</time>
      </trkpt>
      <trkpt lat="49.53371" lon="3.64141">
        <ele>82.11</ele>
        <time>2022-10-17T13:41:59.000Z</time>
      </trkpt>
      <trkpt lat="49.53379" lon="3.64131">
        <ele>81.84</ele>
        <time>2022-10-17T13:42:09.000Z</time>
      </trkpt>
      <trkpt lat="49.53386" lon="3.64122">
        <ele>81.61</ele>
        <time>2022-10-17T13:42:19.000Z</time>
      </trkpt>
      <trkpt lat="49.53395" lon="3.64113">
        <ele>81.13</ele>
        <time>2022-10-17T13:42:29.000Z</time>
      </trkpt>
      <trkpt lat="49.53403" lon="3.64101">
        <ele>80.69</ele>
        <time>2022-10-17T13:42:39.000Z</time>
      </trkpt>
      <trkpt lat="49.53404" lon="3.641">
        <ele>80.36</ele>
        <time>2022-10-17T13:42:49.000Z</time>
      </trkpt>
      <trkpt lat="49.53403" lon="3.64101">
        <ele>80.43</ele>
        <time>2022-10-17T13:42:59.000Z</time>
      </trkpt>
      <trkpt lat="49.53407" lon="3.64097">
        <ele>81.04</ele>
        <time>2022-10-17T13:43:09.000Z</time>
      </trkpt>
      <trkpt lat="49.53414" lon="3.64088">
        <ele>81.37</ele>
        <time>2022-10-17T13:43:19.000Z</time>
      </trkpt>
      <trkpt lat="49.53423" lon="3.64082">
        <ele>81.39</ele>
        <time>2022-10-17T13:43:29.000Z</time>
      </trkpt>
      <trkpt lat="49.53432" lon="3.64076">
        <ele>171.57</ele>
        <time>2022-10-17T13:43:39.000Z</time>
      </trkpt>
      <trkpt lat="49.53443" lon="3.6407">
        <ele>172.83</ele>
        <time>2022-10-17T13:43:49.000Z</time>
      </trkpt>
      <trkpt lat="49.53454" lon="3.64065">
        <ele>172.83</ele>
        <time>2022-10-17T13:43:59.000Z</time>
      </trkpt>
      <trkpt lat="49.53464" lon="3.64063">
        <ele>172.83</ele>
        <time>2022-10-17T13:44:09.000Z</time>
      </trkpt>
      <trkpt lat="49.53471" lon="3.64059">
        <ele>172.83</ele>
        <time>2022-10-17T13:44:19.000Z</time>
      </trkpt>
      <trkpt lat="49.53483" lon="3.64053">
        <ele>172.83</ele>
        <time>2022-10-17T13:44:29.000Z</time>
      </trkpt>
      <trkpt lat="49.53491" lon="3.64048">
        <ele>172.83</ele>
        <time>2022-10-17T13:44:39.000Z</time>
      </trkpt>
      <trkpt lat="49.53499" lon="3.64045">
        <ele>172.83</ele>
        <time>2022-10-17T13:44:49.000Z</time>
      </trkpt>
      <trkpt lat="49.53509" lon="3.6404">
        <ele>171.93</ele>
        <time>2022-10-17T13:44:59.000Z</time>
      </trkpt>
      <trkpt lat="49.53519" lon="3.64036">
        <ele>171.93</ele>
        <time>2022-10-17T13:45:09.000Z</time>
      </trkpt>
      <trkpt lat="49.53527" lon="3.64033">
        <ele>171.93</ele>
        <time>2022-10-17T13:45:19.000Z</time>
      </trkpt>
      <trkpt lat="49.53537" lon="3.6403">
        <ele>171.93</ele>
        <time>2022-10-17T13:45:29.000Z</time>
      </trkpt>
      <trkpt lat="49.53547" lon="3.64024">
        <ele>171.93</ele>
        <time>2022-10-17T13:45:39.000Z</time>
      </trkpt>
      <trkpt lat="49.53555" lon="3.64016">
        <ele>171.93</ele>
        <time>2022-10-17T13:45:49.000Z</time>
      </trkpt>
      <trkpt lat="49.53566" lon="3.64011">
        <ele>171.93</ele>
        <time>2022-10-17T13:45:59.000Z</time>
      </trkpt>
      <trkpt lat="49.53565" lon="3.64013">
        <ele>171.93</ele>
        <time>2022-10-17T13:46:21.000Z</time>
      </trkpt>
      <trkpt lat="49.53575" lon="3.64005">
        <ele>84.62</ele>
        <time>2022-10-17T13:46:31.000Z</time>
      </trkpt>
      <trkpt lat="49.53587" lon="3.63999">
        <ele>84.2</ele>
        <time>2022-10-17T13:46:41.000Z</time>
      </trkpt>
      <trkpt lat="49.53601" lon="3.63994">
        <ele>83.92</ele>
        <time>2022-10-17T13:46:51.000Z</time>
      </trkpt>
      <trkpt lat="49.53612" lon="3.6399">
        <ele>83.95</ele>
        <time>2022-10-17T13:47:01.000Z</time>
      </trkpt>
      <trkpt lat="49.53621" lon="3.63986">
        <ele>83.93</ele>
        <time>2022-10-17T13:47:11.000Z</time>
      </trkpt>
      <trkpt lat="49.53632" lon="3.63978">
        <ele>83.75</ele>
        <time>2022-10-17T13:47:21.000Z</time>
      </trkpt>
      <trkpt lat="49.53642" lon="3.63969">
        <ele>83.54</ele>
        <time>2022-10-17T13:47:31.000Z</time>
      </trkpt>
      <trkpt lat="49.53653" lon="3.63962">
        <ele>83.22</ele>
        <time>2022-10-17T13:47:41.000Z</time>
      </trkpt>
      <trkpt lat="49.53663" lon="3.63955">
        <ele>82.95</ele>
        <time>2022-10-17T13:47:51.000Z</time>
      </trkpt>
      <trkpt lat="49.53673" lon="3.63947">
        <ele>82.94</ele>
        <time>2022-10-17T13:48:01.000Z</time>
      </trkpt>
      <trkpt lat="49.53682" lon="3.6394">
        <ele>83.28</ele>
        <time>2022-10-17T13:48:11.000Z</time>
      </trkpt>
      <trkpt lat="49.53691" lon="3.63931">
        <ele>84.06</ele>
        <time>2022-10-17T13:48:21.000Z</time>
      </trkpt>
      <trkpt lat="49.53701" lon="3.63923">
        <ele>84.69</ele>
        <time>2022-10-17T13:48:31.000Z</time>
      </trkpt>
      <trkpt lat="49.53711" lon="3.63915">
        <ele>85.06</ele>
        <time>2022-10-17T13:48:41.000Z</time>
      </trkpt>
      <trkpt lat="49.53718" lon="3.63908">
        <ele>85.24</ele>
        <time>2022-10-17T13:48:51.000Z</time>
      </trkpt>
      <trkpt lat="49.53725" lon="3.63902">
        <ele>85.65</ele>
        <time>2022-10-17T13:49:01.000Z</time>
      </trkpt>
      <trkpt lat="49.53734" lon="3.63897">
        <ele>85.72</ele>
        <time>2022-10-17T13:49:11.000Z</time>
      </trkpt>
      <trkpt lat="49.53744" lon="3.63891">
        <ele>85.47</ele>
        <time>2022-10-17T13:49:21.000Z</time>
      </trkpt>
      <trkpt lat="49.53754" lon="3.63884">
        <ele>85.4</ele>
        <time>2022-10-17T13:49:31.000Z</time>
      </trkpt>
      <trkpt lat="49.53763" lon="3.63878">
        <ele>85.52</ele>
        <time>2022-10-17T13:49:41.000Z</time>
      </trkpt>
      <trkpt lat="49.53772" lon="3.63874">
        <ele>82.93</ele>
        <time>2022-10-17T13:49:51.000Z</time>
      </trkpt>
      <trkpt lat="49.53782" lon="3.63869">
        <ele>82.93</ele>
        <time>2022-10-17T13:50:01.000Z</time>
      </trkpt>
      <trkpt lat="49.53793" lon="3.63862">
        <ele>82.93</ele>
        <time>2022-10-17T13:50:11.000Z</time>
      </trkpt>
      <trkpt lat="49.53804" lon="3.63855">
        <ele>82.93</ele>
        <time>2022-10-17T13:50:21.000Z</time>
      </trkpt>
      <trkpt lat="49.53813" lon="3.63848">
        <ele>82.93</ele>
        <time>2022-10-17T13:50:31.000Z</time>
      </trkpt>
      <trkpt lat="49.53822" lon="3.63842">
        <ele>82.93</ele>
        <time>2022-10-17T13:50:41.000Z</time>
      </trkpt>
      <trkpt lat="49.53831" lon="3.63837">
        <ele>82.93</ele>
        <time>2022-10-17T13:50:51.000Z</time>
      </trkpt>
      <trkpt lat="49.53841" lon="3.63831">
        <ele>82.93</ele>
        <time>2022-10-17T13:51:01.000Z</time>
      </trkpt>
      <trkpt lat="49.53852" lon="3.63826">
        <ele>82.93</ele>
        <time>2022-10-17T13:51:11.000Z</time>
      </trkpt>
      <trkpt lat="49.53856" lon="3.63824">
        <ele>82.93</ele>
        <time>2022-10-17T13:51:21.000Z</time>
      </trkpt>
      <trkpt lat="49.53855" lon="3.63825">
        <ele>82.93</ele>
        <time>2022-10-17T13:51:31.000Z</time>
      </trkpt>
      <trkpt lat="49.53856" lon="3.63821">
        <ele>83.27</ele>
        <time>2022-10-17T13:52:21.000Z</time>
      </trkpt>
      <trkpt lat="49.53866" lon="3.63812">
        <ele>82.77</ele>
        <time>2022-10-17T13:52:31.000Z</time>
      </trkpt>
      <trkpt lat="49.53873" lon="3.63805">
        <ele>82.92</ele>
        <time>2022-10-17T13:52:41.000Z</time>
      </trkpt>
      <trkpt lat="49.5388" lon="3.63804">
        <ele>82.93</ele>
        <time>2022-10-17T13:52:51.000Z</time>
      </trkpt>
      <trkpt lat="49.5389" lon="3.63803">
        <ele>82.93</ele>
        <time>2022-10-17T13:53:01.000Z</time>
      </trkpt>
      <trkpt lat="49.53901" lon="3.638">
        <ele>82.93</ele>
        <time>2022-10-17T13:53:11.000Z</time>
      </trkpt>
      <trkpt lat="49.53911" lon="3.63795">
        <ele>82.93</ele>
        <time>2022-10-17T13:53:21.000Z</time>
      </trkpt>
      <trkpt lat="49.53919" lon="3.63791">
        <ele>82.93</ele>
        <time>2022-10-17T13:53:31.000Z</time>
      </trkpt>
      <trkpt lat="49.5393" lon="3.63787">
        <ele>82.93</ele>
        <time>2022-10-17T13:53:41.000Z</time>
      </trkpt>
      <trkpt lat="49.53942" lon="3.63773">
        <ele>82.93</ele>
        <time>2022-10-17T13:53:51.000Z</time>
      </trkpt>
      <trkpt lat="49.53955" lon="3.63762">
        <ele>69.64</ele>
        <time>2022-10-17T13:54:01.000Z</time>
      </trkpt>
      <trkpt lat="49.53969" lon="3.6375">
        <ele>69.43</ele>
        <time>2022-10-17T13:54:11.000Z</time>
      </trkpt>
      <trkpt lat="49.53983" lon="3.63745">
        <ele>69.43</ele>
        <time>2022-10-17T13:54:21.000Z</time>
      </trkpt>
      <trkpt lat="49.53997" lon="3.6374">
        <ele>69.43</ele>
        <time>2022-10-17T13:54:31.000Z</time>
      </trkpt>
      <trkpt lat="49.54006" lon="3.63735">
        <ele>82.88</ele>
        <time>2022-10-17T13:54:41.000Z</time>
      </trkpt>
      <trkpt lat="49.54018" lon="3.63732">
        <ele>82.93</ele>
        <time>2022-10-17T13:54:50.999Z</time>
      </trkpt>
      <trkpt lat="49.54021" lon="3.63734">
        <ele>82.93</ele>
        <time>2022-10-17T13:55:00.999Z</time>
      </trkpt>
      <trkpt lat="49.54019" lon="3.6373">
        <ele>82.93</ele>
        <time>2022-10-17T13:55:10.999Z</time>
      </trkpt>
      <trkpt lat="49.54019" lon="3.63728">
        <ele>82.93</ele>
        <time>2022-10-17T13:55:24.999Z</time>
      </trkpt>
      <trkpt lat="49.54024" lon="3.63715">
        <ele>82.93</ele>
        <time>2022-10-17T13:55:34.999Z</time>
      </trkpt>
      <trkpt lat="49.54021" lon="3.63698">
        <ele>82.93</ele>
        <time>2022-10-17T13:55:44.999Z</time>
      </trkpt>
      <trkpt lat="49.54015" lon="3.63681">
        <ele>82.93</ele>
        <time>2022-10-17T13:55:54.999Z</time>
      </trkpt>
      <trkpt lat="49.5401" lon="3.63668">
        <ele>82.93</ele>
        <time>2022-10-17T13:56:04.999Z</time>
      </trkpt>
      <trkpt lat="49.54005" lon="3.63656">
        <ele>81.51</ele>
        <time>2022-10-17T13:56:14.999Z</time>
      </trkpt>
      <trkpt lat="49.54001" lon="3.63642">
        <ele>81.06</ele>
        <time>2022-10-17T13:56:24.999Z</time>
      </trkpt>
      <trkpt lat="49.53996" lon="3.63627">
        <ele>80.76</ele>
        <time>2022-10-17T13:56:34.999Z</time>
      </trkpt>
      <trkpt lat="49.53989" lon="3.63612">
        <ele>80.45</ele>
        <time>2022-10-17T13:56:44.999Z</time>
      </trkpt>
      <trkpt lat="49.53984" lon="3.63598">
        <ele>80.29</ele>
        <time>2022-10-17T13:56:54.999Z</time>
      </trkpt>
      <trkpt lat="49.53978" lon="3.63584">
        <ele>80.14</ele>
        <time>2022-10-17T13:57:04.999Z</time>
      </trkpt>
      <trkpt lat="49.53971" lon="3.63569">
        <ele>80.02</ele>
        <time>2022-10-17T13:57:14.999Z</time>
      </trkpt>
      <trkpt lat="49.53968" lon="3.63553">
        <ele>79.89</ele>
        <time>2022-10-17T13:57:24.999Z</time>
      </trkpt>
      <trkpt lat="49.53967" lon="3.63538">
        <ele>79.76</ele>
        <time>2022-10-17T13:57:34.999Z</time>
      </trkpt>
      <trkpt lat="49.53962" lon="3.63521">
        <ele>79.68</ele>
        <time>2022-10-17T13:57:44.999Z</time>
      </trkpt>
      <trkpt lat="49.53955" lon="3.63505">
        <ele>79.71</ele>
        <time>2022-10-17T13:57:54.999Z</time>
      </trkpt>
      <trkpt lat="49.53948" lon="3.63489">
        <ele>79.7</ele>
        <time>2022-10-17T13:58:04.999Z</time>
      </trkpt>
      <trkpt lat="49.53943" lon="3.63474">
        <ele>79.67</ele>
        <time>2022-10-17T13:58:14.999Z</time>
      </trkpt>
      <trkpt lat="49.53938" lon="3.63457">
        <ele>79.64</ele>
        <time>2022-10-17T13:58:24.999Z</time>
      </trkpt>
      <trkpt lat="49.53933" lon="3.63443">
        <ele>79.67</ele>
        <time>2022-10-17T13:58:34.999Z</time>
      </trkpt>
      <trkpt lat="49.53928" lon="3.63429">
        <ele>79.72</ele>
        <time>2022-10-17T13:58:44.999Z</time>
      </trkpt>
      <trkpt lat="49.53924" lon="3.63413">
        <ele>79.67</ele>
        <time>2022-10-17T13:58:54.999Z</time>
      </trkpt>
      <trkpt lat="49.53918" lon="3.63396">
        <ele>79.67</ele>
        <time>2022-10-17T13:59:04.999Z</time>
      </trkpt>
      <trkpt lat="49.53912" lon="3.6338">
        <ele>79.87</ele>
        <time>2022-10-17T13:59:14.999Z</time>
      </trkpt>
      <trkpt lat="49.53907" lon="3.63364">
        <ele>80.26</ele>
        <time>2022-10-17T13:59:24.999Z</time>
      </trkpt>
      <trkpt lat="49.53903" lon="3.6335">
        <ele>80.45</ele>
        <time>2022-10-17T13:59:34.999Z</time>
      </trkpt>
      <trkpt lat="49.53898" lon="3.63337">
        <ele>80.35</ele>
        <time>2022-10-17T13:59:44.999Z</time>
      </trkpt>
      <trkpt lat="49.53894" lon="3.63324">
        <ele>80.18</ele>
        <time>2022-10-17T13:59:54.999Z</time>
      </trkpt>
      <trkpt lat="49.53887" lon="3.63308">
        <ele>80.32</ele>
        <time>2022-10-17T14:00:04.999Z</time>
      </trkpt>
      <trkpt lat="49.53881" lon="3.63294">
        <ele>80.71</ele>
        <time>2022-10-17T14:00:14.999Z</time>
      </trkpt>
      <trkpt lat="49.53878" lon="3.63279">
        <ele>81.09</ele>
        <time>2022-10-17T14:00:24.999Z</time>
      </trkpt>
      <trkpt lat="49.53881" lon="3.63264">
        <ele>81.26</ele>
        <time>2022-10-17T14:00:34.999Z</time>
      </trkpt>
      <trkpt lat="49.53888" lon="3.63257">
        <ele>80.7</ele>
        <time>2022-10-17T14:00:44.999Z</time>
      </trkpt>
      <trkpt lat="49.53898" lon="3.63252">
        <ele>79.78</ele>
        <time>2022-10-17T14:00:54.999Z</time>
      </trkpt>
      <trkpt lat="49.5391" lon="3.63247">
        <ele>79.05</ele>
        <time>2022-10-17T14:01:04.999Z</time>
      </trkpt>
      <trkpt lat="49.53921" lon="3.63244">
        <ele>79.01</ele>
        <time>2022-10-17T14:01:14.999Z</time>
      </trkpt>
      <trkpt lat="49.53931" lon="3.63241">
        <ele>79.03</ele>
        <time>2022-10-17T14:01:24.999Z</time>
      </trkpt>
      <trkpt lat="49.53942" lon="3.63242">
        <ele>78.49</ele>
        <time>2022-10-17T14:01:34.999Z</time>
      </trkpt>
      <trkpt lat="49.53954" lon="3.63241">
        <ele>77.86</ele>
        <time>2022-10-17T14:01:44.999Z</time>
      </trkpt>
      <trkpt lat="49.53964" lon="3.63237">
        <ele>77.02</ele>
        <time>2022-10-17T14:01:54.999Z</time>
      </trkpt>
      <trkpt lat="49.53973" lon="3.63234">
        <ele>76.22</ele>
        <time>2022-10-17T14:02:04.999Z</time>
      </trkpt>
      <trkpt lat="49.53983" lon="3.63229">
        <ele>75.55</ele>
        <time>2022-10-17T14:02:14.999Z</time>
      </trkpt>
      <trkpt lat="49.53995" lon="3.63224">
        <ele>74.87</ele>
        <time>2022-10-17T14:02:24.999Z</time>
      </trkpt>
      <trkpt lat="49.54007" lon="3.63218">
        <ele>74.43</ele>
        <time>2022-10-17T14:02:34.999Z</time>
      </trkpt>
      <trkpt lat="49.54018" lon="3.63211">
        <ele>74.42</ele>
        <time>2022-10-17T14:02:44.999Z</time>
      </trkpt>
      <trkpt lat="49.54029" lon="3.63201">
        <ele>74.42</ele>
        <time>2022-10-17T14:02:54.999Z</time>
      </trkpt>
      <trkpt lat="49.54037" lon="3.63195">
        <ele>74.33</ele>
        <time>2022-10-17T14:03:04.999Z</time>
      </trkpt>
      <trkpt lat="49.54047" lon="3.63187">
        <ele>74.24</ele>
        <time>2022-10-17T14:03:14.999Z</time>
      </trkpt>
      <trkpt lat="49.54057" lon="3.63182">
        <ele>74.17</ele>
        <time>2022-10-17T14:03:24.999Z</time>
      </trkpt>
      <trkpt lat="49.54066" lon="3.63177">
        <ele>74.29</ele>
        <time>2022-10-17T14:03:34.999Z</time>
      </trkpt>
      <trkpt lat="49.54078" lon="3.6317">
        <ele>74.6</ele>
        <time>2022-10-17T14:03:44.999Z</time>
      </trkpt>
      <trkpt lat="49.54091" lon="3.63165">
        <ele>70.24</ele>
        <time>2022-10-17T14:03:54.999Z</time>
      </trkpt>
      <trkpt lat="49.54103" lon="3.6316">
        <ele>70.23</ele>
        <time>2022-10-17T14:04:04.999Z</time>
      </trkpt>
      <trkpt lat="49.54112" lon="3.63152">
        <ele>70.23</ele>
        <time>2022-10-17T14:04:14.999Z</time>
      </trkpt>
      <trkpt lat="49.54123" lon="3.63143">
        <ele>70.23</ele>
        <time>2022-10-17T14:04:24.999Z</time>
      </trkpt>
      <trkpt lat="49.54132" lon="3.63137">
        <ele>70.23</ele>
        <time>2022-10-17T14:04:34.999Z</time>
      </trkpt>
      <trkpt lat="49.54144" lon="3.6313">
        <ele>70.23</ele>
        <time>2022-10-17T14:04:44.999Z</time>
      </trkpt>
      <trkpt lat="49.54153" lon="3.63126">
        <ele>70.23</ele>
        <time>2022-10-17T14:04:54.999Z</time>
      </trkpt>
      <trkpt lat="49.54166" lon="3.63122">
        <ele>70.23</ele>
        <time>2022-10-17T14:05:04.999Z</time>
      </trkpt>
      <trkpt lat="49.54173" lon="3.63117">
        <ele>70.23</ele>
        <time>2022-10-17T14:05:14.999Z</time>
      </trkpt>
      <trkpt lat="49.54183" lon="3.63113">
        <ele>70.23</ele>
        <time>2022-10-17T14:05:24.999Z</time>
      </trkpt>
      <trkpt lat="49.54191" lon="3.6311">
        <ele>70.23</ele>
        <time>2022-10-17T14:05:34.999Z</time>
      </trkpt>
      <trkpt lat="49.54203" lon="3.63108">
        <ele>70.23</ele>
        <time>2022-10-17T14:05:44.999Z</time>
      </trkpt>
      <trkpt lat="49.54215" lon="3.63105">
        <ele>70.23</ele>
        <time>2022-10-17T14:05:54.999Z</time>
      </trkpt>
      <trkpt lat="49.54228" lon="3.63103">
        <ele>70.23</ele>
        <time>2022-10-17T14:06:04.999Z</time>
      </trkpt>
      <trkpt lat="49.54237" lon="3.63098">
        <ele>70.23</ele>
        <time>2022-10-17T14:06:14.999Z</time>
      </trkpt>
      <trkpt lat="49.54249" lon="3.63089">
        <ele>77.37</ele>
        <time>2022-10-17T14:06:24.999Z</time>
      </trkpt>
      <trkpt lat="49.54257" lon="3.63084">
        <ele>70.23</ele>
        <time>2022-10-17T14:06:34.999Z</time>
      </trkpt>
      <trkpt lat="49.54269" lon="3.63079">
        <ele>70.23</ele>
        <time>2022-10-17T14:06:44.999Z</time>
      </trkpt>
      <trkpt lat="49.54282" lon="3.63075">
        <ele>70.23</ele>
        <time>2022-10-17T14:06:54.999Z</time>
      </trkpt>
      <trkpt lat="49.54291" lon="3.63076">
        <ele>70.23</ele>
        <time>2022-10-17T14:07:04.999Z</time>
      </trkpt>
      <trkpt lat="49.54302" lon="3.63076">
        <ele>70.23</ele>
        <time>2022-10-17T14:07:14.999Z</time>
      </trkpt>
      <trkpt lat="49.54312" lon="3.63074">
        <ele>70.23</ele>
        <time>2022-10-17T14:07:24.999Z</time>
      </trkpt>
      <trkpt lat="49.54324" lon="3.63071">
        <ele>70.23</ele>
        <time>2022-10-17T14:07:34.999Z</time>
      </trkpt>
      <trkpt lat="49.54336" lon="3.63065">
        <ele>70.03</ele>
        <time>2022-10-17T14:07:44.999Z</time>
      </trkpt>
      <trkpt lat="49.54346" lon="3.63065">
        <ele>70.23</ele>
        <time>2022-10-17T14:07:54.999Z</time>
      </trkpt>
      <trkpt lat="49.54351" lon="3.63063">
        <ele>70.23</ele>
        <time>2022-10-17T14:08:04.999Z</time>
      </trkpt>
      <trkpt lat="49.54351" lon="3.63061">
        <ele>70.23</ele>
        <time>2022-10-17T14:08:14.999Z</time>
      </trkpt>
      <trkpt lat="49.54351" lon="3.63066">
        <ele>70.23</ele>
        <time>2022-10-17T14:08:24.999Z</time>
      </trkpt>
      <trkpt lat="49.54355" lon="3.63068">
        <ele>70.23</ele>
        <time>2022-10-17T14:08:34.999Z</time>
      </trkpt>
      <trkpt lat="49.54365" lon="3.63066">
        <ele>70.23</ele>
        <time>2022-10-17T14:08:44.999Z</time>
      </trkpt>
      <trkpt lat="49.54382" lon="3.63064">
        <ele>69.43</ele>
        <time>2022-10-17T14:08:54.999Z</time>
      </trkpt>
      <trkpt lat="49.54396" lon="3.63061">
        <ele>69.43</ele>
        <time>2022-10-17T14:09:04.999Z</time>
      </trkpt>
      <trkpt lat="49.54405" lon="3.63058">
        <ele>70.22</ele>
        <time>2022-10-17T14:09:14.999Z</time>
      </trkpt>
      <trkpt lat="49.54416" lon="3.63057">
        <ele>70.23</ele>
        <time>2022-10-17T14:09:24.999Z</time>
      </trkpt>
      <trkpt lat="49.54427" lon="3.63054">
        <ele>70.23</ele>
        <time>2022-10-17T14:09:34.999Z</time>
      </trkpt>
      <trkpt lat="49.54438" lon="3.63053">
        <ele>70.23</ele>
        <time>2022-10-17T14:09:44.999Z</time>
      </trkpt>
      <trkpt lat="49.54449" lon="3.63053">
        <ele>70.23</ele>
        <time>2022-10-17T14:09:54.999Z</time>
      </trkpt>
      <trkpt lat="49.54459" lon="3.63054">
        <ele>70.23</ele>
        <time>2022-10-17T14:10:04.999Z</time>
      </trkpt>
      <trkpt lat="49.5447" lon="3.63055">
        <ele>69.43</ele>
        <time>2022-10-17T14:10:14.999Z</time>
      </trkpt>
      <trkpt lat="49.5448" lon="3.63058">
        <ele>69.43</ele>
        <time>2022-10-17T14:10:24.999Z</time>
      </trkpt>
      <trkpt lat="49.54492" lon="3.6306">
        <ele>69.43</ele>
        <time>2022-10-17T14:10:34.999Z</time>
      </trkpt>
      <trkpt lat="49.54504" lon="3.63062">
        <ele>69.43</ele>
        <time>2022-10-17T14:10:44.999Z</time>
      </trkpt>
      <trkpt lat="49.54514" lon="3.63063">
        <ele>69.43</ele>
        <time>2022-10-17T14:10:54.999Z</time>
      </trkpt>
      <trkpt lat="49.54524" lon="3.63065">
        <ele>69.44</ele>
        <time>2022-10-17T14:11:04.999Z</time>
      </trkpt>
      <trkpt lat="49.54533" lon="3.63068">
        <ele>69.43</ele>
        <time>2022-10-17T14:11:14.999Z</time>
      </trkpt>
      <trkpt lat="49.54544" lon="3.63071">
        <ele>69.43</ele>
        <time>2022-10-17T14:11:24.999Z</time>
      </trkpt>
      <trkpt lat="49.54554" lon="3.63074">
        <ele>69.33</ele>
        <time>2022-10-17T14:11:34.999Z</time>
      </trkpt>
      <trkpt lat="49.54564" lon="3.63077">
        <ele>69.33</ele>
        <time>2022-10-17T14:11:44.999Z</time>
      </trkpt>
      <trkpt lat="49.54576" lon="3.63084">
        <ele>69.43</ele>
        <time>2022-10-17T14:11:54.999Z</time>
      </trkpt>
      <trkpt lat="49.54586" lon="3.63089">
        <ele>69.43</ele>
        <time>2022-10-17T14:12:04.999Z</time>
      </trkpt>
      <trkpt lat="49.54592" lon="3.63099">
        <ele>69.53</ele>
        <time>2022-10-17T14:12:14.999Z</time>
      </trkpt>
      <trkpt lat="49.54588" lon="3.63108">
        <ele>69.78</ele>
        <time>2022-10-17T14:12:24.415Z</time>
      </trkpt>
      <trkpt lat="49.54585" lon="3.63116">
        <ele>69.68</ele>
        <time>2022-10-17T14:12:33.999Z</time>
      </trkpt>
      <trkpt lat="49.54582" lon="3.6313">
        <ele>69.63</ele>
        <time>2022-10-17T14:12:43.999Z</time>
      </trkpt>
      <trkpt lat="49.54581" lon="3.63146">
        <ele>69.83</ele>
        <time>2022-10-17T14:12:53.999Z</time>
      </trkpt>
      <trkpt lat="49.54579" lon="3.63165">
        <ele>70.03</ele>
        <time>2022-10-17T14:13:03.999Z</time>
      </trkpt>
      <trkpt lat="49.54575" lon="3.63179">
        <ele>70.02</ele>
        <time>2022-10-17T14:13:13.999Z</time>
      </trkpt>
      <trkpt lat="49.5457" lon="3.63198">
        <ele>70.03</ele>
        <time>2022-10-17T14:13:23.999Z</time>
      </trkpt>
      <trkpt lat="49.54569" lon="3.63212">
        <ele>70.03</ele>
        <time>2022-10-17T14:13:33.999Z</time>
      </trkpt>
      <trkpt lat="49.54566" lon="3.63228">
        <ele>70.23</ele>
        <time>2022-10-17T14:13:43.999Z</time>
      </trkpt>
      <trkpt lat="49.54564" lon="3.63242">
        <ele>70.23</ele>
        <time>2022-10-17T14:13:53.999Z</time>
      </trkpt>
      <trkpt lat="49.54562" lon="3.63259">
        <ele>70.23</ele>
        <time>2022-10-17T14:14:03.445Z</time>
      </trkpt>
      <trkpt lat="49.5456" lon="3.63275">
        <ele>70.23</ele>
        <time>2022-10-17T14:14:12.999Z</time>
      </trkpt>
      <trkpt lat="49.54557" lon="3.63289">
        <ele>70.23</ele>
        <time>2022-10-17T14:14:22.999Z</time>
      </trkpt>
      <trkpt lat="49.54554" lon="3.63307">
        <ele>70.23</ele>
        <time>2022-10-17T14:14:32.999Z</time>
      </trkpt>
      <trkpt lat="49.54552" lon="3.63323">
        <ele>70.23</ele>
        <time>2022-10-17T14:14:42.999Z</time>
      </trkpt>
      <trkpt lat="49.54548" lon="3.63338">
        <ele>70.53</ele>
        <time>2022-10-17T14:14:52.999Z</time>
      </trkpt>
      <trkpt lat="49.54546" lon="3.63356">
        <ele>74.73</ele>
        <time>2022-10-17T14:15:02.999Z</time>
      </trkpt>
      <trkpt lat="49.54545" lon="3.63374">
        <ele>74.73</ele>
        <time>2022-10-17T14:15:12.999Z</time>
      </trkpt>
      <trkpt lat="49.54543" lon="3.63393">
        <ele>71.34</ele>
        <time>2022-10-17T14:15:22.999Z</time>
      </trkpt>
      <trkpt lat="49.54541" lon="3.63411">
        <ele>71.13</ele>
        <time>2022-10-17T14:15:32.999Z</time>
      </trkpt>
      <trkpt lat="49.54538" lon="3.63429">
        <ele>74.22</ele>
        <time>2022-10-17T14:15:42.999Z</time>
      </trkpt>
      <trkpt lat="49.54535" lon="3.63449">
        <ele>74.73</ele>
        <time>2022-10-17T14:15:52.999Z</time>
      </trkpt>
      <trkpt lat="49.5453" lon="3.63469">
        <ele>74.43</ele>
        <time>2022-10-17T14:16:02.999Z</time>
      </trkpt>
      <trkpt lat="49.54525" lon="3.63483">
        <ele>75.18</ele>
        <time>2022-10-17T14:16:12.999Z</time>
      </trkpt>
      <trkpt lat="49.54521" lon="3.63492">
        <ele>74.74</ele>
        <time>2022-10-17T14:16:22.999Z</time>
      </trkpt>
      <trkpt lat="49.54518" lon="3.63513">
        <ele>75.13</ele>
        <time>2022-10-17T14:16:32.999Z</time>
      </trkpt>
      <trkpt lat="49.54513" lon="3.63536">
        <ele>74.73</ele>
        <time>2022-10-17T14:16:42.999Z</time>
      </trkpt>
      <trkpt lat="49.54513" lon="3.6354">
        <ele>75.32</ele>
        <time>2022-10-17T14:16:52.999Z</time>
      </trkpt>
      <trkpt lat="49.54514" lon="3.6354">
        <ele>72.33</ele>
        <time>2022-10-17T14:17:03.999Z</time>
      </trkpt>
      <trkpt lat="49.54515" lon="3.63541">
        <ele>75.13</ele>
        <time>2022-10-17T14:17:13.999Z</time>
      </trkpt>
      <trkpt lat="49.54515" lon="3.63539">
        <ele>74.54</ele>
        <time>2022-10-17T14:17:32.999Z</time>
      </trkpt>
      <trkpt lat="49.54518" lon="3.63536">
        <ele>74.73</ele>
        <time>2022-10-17T14:17:42.999Z</time>
      </trkpt>
      <trkpt lat="49.54516" lon="3.63537">
        <ele>74.73</ele>
        <time>2022-10-17T14:17:53.999Z</time>
      </trkpt>
      <trkpt lat="49.54514" lon="3.63541">
        <ele>74.58</ele>
        <time>2022-10-17T14:18:03.999Z</time>
      </trkpt>
      <trkpt lat="49.54514" lon="3.63545">
        <ele>72.34</ele>
        <time>2022-10-17T14:18:13.999Z</time>
      </trkpt>
      <trkpt lat="49.54515" lon="3.63546">
        <ele>75.13</ele>
        <time>2022-10-17T14:18:29.999Z</time>
      </trkpt>
      <trkpt lat="49.54515" lon="3.63551">
        <ele>75.23</ele>
        <time>2022-10-17T14:18:39.999Z</time>
      </trkpt>
    </trkseg>
  </trk>
</gpx>